UAL863 KSFO-YSSY
Flight info
| Callsign | UAL863 |
|---|---|
| Flight time | N/A |
| Altitude | 34000 |
| Route | GNNRR3 CINNY DCT ALANN DCT GITLE DCT DIALO R576 DUSAC/N0498F360 R576 DENNS DCT CARRP A579 CEBUR/N0497F380 A579 KAMAP/N0490F400 DCT TANIL A579 UPSAD DCT ABARB DCT RIKNI N774 MARLN |
| Aircraft | B789/H-SDE1E2E3FGHIJ2J3J4J5M1RWXY/LB1D1 |
Departure
| Time | N/A |
|---|---|
| Airport | San Francisco International Airport (KSFO) |
Arrival
| Time | 2026-05-08 02:15 |
|---|---|
| Airport | Sydney Kingsford Smith International Airport (YSSY) |
| Time | Latitude | Longitude | Altitude | Speed | Heading |
|---|---|---|---|---|---|
| 2026-05-07 12:22 | 35.67549 | -125.78335 | 35130 ft | 481 kts | 239° |
| 2026-05-07 12:22 | 35.65790 | -125.81836 | 35361 ft | 479 kts | 239° |
| 2026-05-07 12:22 | 35.64037 | -125.85323 | 35510 ft | 479 kts | 239° |
| 2026-05-07 12:22 | 35.62289 | -125.88797 | 35705 ft | 478 kts | 239° |
| 2026-05-07 12:23 | 35.60536 | -125.92274 | 35895 ft | 477 kts | 239° |
| 2026-05-07 12:23 | 35.58883 | -125.95747 | 36002 ft | 477 kts | 242° |
| 2026-05-07 12:23 | 35.57291 | -125.99315 | 36160 ft | 476 kts | 241° |
| 2026-05-07 12:24 | 35.54042 | -126.06427 | 36225 ft | 478 kts | 241° |
| 2026-05-07 12:24 | 35.50832 | -126.13556 | 36218 ft | 475 kts | 241° |
| 2026-05-07 12:25 | 35.47611 | -126.20631 | 36218 ft | 475 kts | 241° |
| 2026-05-07 12:25 | 35.44396 | -126.27711 | 36224 ft | 475 kts | 241° |
| 2026-05-07 12:26 | 35.41169 | -126.34787 | 36225 ft | 475 kts | 241° |
| 2026-05-07 12:26 | 35.37941 | -126.41857 | 36230 ft | 475 kts | 241° |
| 2026-05-07 12:27 | 35.34706 | -126.48925 | 36231 ft | 475 kts | 241° |
| 2026-05-07 12:27 | 35.31469 | -126.55985 | 36230 ft | 476 kts | 241° |
| 2026-05-07 12:28 | 35.28227 | -126.63040 | 36231 ft | 476 kts | 241° |
| 2026-05-07 12:28 | 35.24980 | -126.70090 | 36234 ft | 476 kts | 241° |
| 2026-05-07 12:29 | 35.21744 | -126.77102 | 36233 ft | 476 kts | 241° |
| 2026-05-07 12:29 | 35.18486 | -126.84148 | 36233 ft | 475 kts | 241° |
| 2026-05-07 12:30 | 35.15229 | -126.91179 | 36237 ft | 475 kts | 241° |
| 2026-05-07 12:30 | 35.11964 | -126.98211 | 36237 ft | 475 kts | 241° |
| 2026-05-07 12:31 | 35.08700 | -127.05226 | 36243 ft | 474 kts | 241° |
| 2026-05-07 12:31 | 35.05440 | -127.12221 | 36241 ft | 474 kts | 241° |
| 2026-05-07 12:32 | 35.02165 | -127.19230 | 36251 ft | 477 kts | 241° |
| 2026-05-07 12:32 | 34.98891 | -127.26222 | 36249 ft | 478 kts | 242° |
| 2026-05-07 12:33 | 34.93931 | -127.36796 | 36254 ft | 479 kts | 241° |
| 2026-05-07 12:33 | 34.90619 | -127.43833 | 36256 ft | 479 kts | 241° |
| 2026-05-07 12:34 | 34.87304 | -127.50864 | 36243 ft | 479 kts | 242° |
| 2026-05-07 12:34 | 34.83977 | -127.57910 | 36251 ft | 481 kts | 242° |
| 2026-05-07 12:35 | 34.80645 | -127.64948 | 36253 ft | 479 kts | 242° |
| 2026-05-07 12:35 | 34.77310 | -127.71979 | 36244 ft | 480 kts | 242° |
| 2026-05-07 12:36 | 34.73950 | -127.79052 | 36259 ft | 485 kts | 243° |
| 2026-05-07 12:36 | 34.70560 | -127.86169 | 36264 ft | 487 kts | 243° |
| 2026-05-07 12:37 | 34.67183 | -127.93244 | 36269 ft | 487 kts | 243° |
| 2026-05-07 12:37 | 34.63781 | -128.00360 | 36261 ft | 489 kts | 243° |
| 2026-05-07 12:38 | 34.60353 | -128.07514 | 36267 ft | 490 kts | 243° |
| 2026-05-07 12:38 | 34.56919 | -128.14666 | 36268 ft | 490 kts | 243° |
| 2026-05-07 12:39 | 34.53484 | -128.21805 | 36261 ft | 490 kts | 243° |
| 2026-05-07 12:39 | 34.50043 | -128.28946 | 36261 ft | 491 kts | 243° |
| 2026-05-07 12:40 | 34.46589 | -128.36095 | 36267 ft | 492 kts | 243° |
| 2026-05-07 12:40 | 34.43126 | -128.43249 | 36263 ft | 492 kts | 243° |
| 2026-05-07 12:41 | 34.39661 | -128.50391 | 36267 ft | 491 kts | 243° |
| 2026-05-07 12:41 | 34.36203 | -128.57507 | 36263 ft | 490 kts | 243° |
| 2026-05-07 12:42 | 34.32745 | -128.64607 | 36266 ft | 489 kts | 243° |
| 2026-05-07 12:42 | 34.29290 | -128.71689 | 36264 ft | 489 kts | 243° |
| 2026-05-07 12:43 | 34.25818 | -128.78790 | 36266 ft | 491 kts | 243° |
| 2026-05-07 12:43 | 34.22330 | -128.85909 | 36276 ft | 493 kts | 243° |
| 2026-05-07 12:44 | 34.18858 | -128.92982 | 36258 ft | 491 kts | 243° |
| 2026-05-07 12:44 | 34.15370 | -129.00072 | 36258 ft | 491 kts | 243° |
| 2026-05-07 12:45 | 34.11882 | -129.07148 | 36262 ft | 490 kts | 243° |
| 2026-05-07 12:45 | 34.08392 | -129.14216 | 36266 ft | 489 kts | 243° |
| 2026-05-07 12:46 | 34.04903 | -129.21268 | 36261 ft | 489 kts | 243° |
| 2026-05-07 12:46 | 34.01411 | -129.28311 | 36264 ft | 488 kts | 243° |
| 2026-05-07 12:47 | 33.97915 | -129.35348 | 36255 ft | 490 kts | 243° |
| 2026-05-07 12:47 | 33.94410 | -129.42388 | 36270 ft | 490 kts | 243° |
| 2026-05-07 12:48 | 33.90918 | -129.49390 | 36278 ft | 491 kts | 243° |
| 2026-05-07 12:48 | 33.87397 | -129.56437 | 36281 ft | 491 kts | 243° |
| 2026-05-07 12:49 | 33.83871 | -129.63478 | 36273 ft | 491 kts | 243° |
| 2026-05-07 12:49 | 33.80346 | -129.70504 | 36271 ft | 490 kts | 243° |
| 2026-05-07 12:50 | 33.76829 | -129.77500 | 36268 ft | 489 kts | 243° |
| 2026-05-07 12:50 | 33.73311 | -129.84485 | 36267 ft | 487 kts | 243° |
| 2026-05-07 12:51 | 33.69795 | -129.91454 | 36268 ft | 488 kts | 242° |
| 2026-05-07 12:51 | 33.66266 | -129.98433 | 36273 ft | 489 kts | 242° |
| 2026-05-07 12:52 | 33.62753 | -130.05369 | 36264 ft | 490 kts | 242° |
| 2026-05-07 12:52 | 33.59211 | -130.12347 | 36265 ft | 489 kts | 242° |
| 2026-05-07 12:53 | 33.55671 | -130.19309 | 36268 ft | 488 kts | 242° |
| 2026-05-07 12:53 | 33.52134 | -130.26251 | 36264 ft | 487 kts | 242° |
| 2026-05-07 12:54 | 33.48603 | -130.33168 | 36265 ft | 486 kts | 242° |
| 2026-05-07 12:54 | 33.45066 | -130.40083 | 36266 ft | 487 kts | 242° |
| 2026-05-07 12:55 | 33.41542 | -130.46961 | 36271 ft | 488 kts | 242° |
| 2026-05-07 12:55 | 33.37985 | -130.53889 | 36265 ft | 487 kts | 242° |
| 2026-05-07 12:56 | 33.34435 | -130.60790 | 36266 ft | 486 kts | 242° |
| 2026-05-07 12:56 | 33.30889 | -130.67671 | 36262 ft | 487 kts | 242° |
| 2026-05-07 12:57 | 33.27325 | -130.74575 | 36273 ft | 489 kts | 242° |
| 2026-05-07 12:57 | 33.23745 | -130.81495 | 36282 ft | 490 kts | 242° |
| 2026-05-07 12:58 | 33.20161 | -130.88409 | 36281 ft | 489 kts | 242° |
| 2026-05-07 12:58 | 33.16608 | -130.95252 | 36272 ft | 488 kts | 242° |
| 2026-05-07 12:59 | 33.13037 | -131.02118 | 36272 ft | 486 kts | 242° |
| 2026-05-07 12:59 | 33.09468 | -131.08967 | 36271 ft | 486 kts | 242° |
| 2026-05-07 13:00 | 33.05888 | -131.15823 | 36274 ft | 487 kts | 242° |
| 2026-05-07 13:00 | 33.02302 | -131.22677 | 36276 ft | 487 kts | 242° |
| 2026-05-07 13:01 | 32.98708 | -131.29535 | 36278 ft | 488 kts | 242° |
| 2026-05-07 13:01 | 32.95110 | -131.36388 | 36274 ft | 488 kts | 241° |
| 2026-05-07 13:02 | 32.91503 | -131.43245 | 36276 ft | 488 kts | 241° |
| 2026-05-07 13:02 | 32.87897 | -131.50086 | 36277 ft | 488 kts | 241° |
| 2026-05-07 13:03 | 32.84308 | -131.56885 | 36271 ft | 488 kts | 241° |
| 2026-05-07 13:03 | 32.80691 | -131.63721 | 36272 ft | 488 kts | 241° |
| 2026-05-07 13:04 | 32.77075 | -131.70545 | 36272 ft | 488 kts | 241° |
| 2026-05-07 13:04 | 32.73456 | -131.77362 | 36273 ft | 487 kts | 241° |
| 2026-05-07 13:05 | 32.70451 | -131.83012 | 36272 ft | 486 kts | 241° |
| 2026-05-07 13:05 | 32.66836 | -131.89799 | 36269 ft | 485 kts | 241° |
| 2026-05-07 13:06 | 32.63227 | -131.96562 | 36269 ft | 485 kts | 241° |
| 2026-05-07 13:06 | 32.59607 | -132.03333 | 36276 ft | 486 kts | 241° |
| 2026-05-07 13:07 | 32.55980 | -132.10106 | 36277 ft | 486 kts | 241° |
| 2026-05-07 13:07 | 32.52371 | -132.16832 | 36278 ft | 487 kts | 241° |
| 2026-05-07 13:08 | 32.48728 | -132.23609 | 36273 ft | 487 kts | 241° |
| 2026-05-07 13:08 | 32.45077 | -132.30389 | 36275 ft | 488 kts | 241° |
| 2026-05-07 13:09 | 32.41417 | -132.37174 | 36277 ft | 489 kts | 241° |
| 2026-05-07 13:09 | 32.37754 | -132.43951 | 36268 ft | 488 kts | 241° |
| 2026-05-07 13:10 | 32.34095 | -132.50711 | 36281 ft | 487 kts | 241° |
| 2026-05-07 13:10 | 32.30458 | -132.57416 | 36271 ft | 487 kts | 241° |
| 2026-05-07 13:11 | 32.26795 | -132.64156 | 36277 ft | 487 kts | 241° |
| 2026-05-07 13:11 | 32.23129 | -132.70892 | 36275 ft | 488 kts | 241° |
| 2026-05-07 13:12 | 32.19456 | -132.77628 | 36281 ft | 488 kts | 241° |
| 2026-05-07 13:12 | 32.15851 | -132.84405 | 36293 ft | 485 kts | 245° |
| 2026-05-07 13:13 | 32.12507 | -132.91346 | 36282 ft | 487 kts | 244° |
| 2026-05-07 13:13 | 32.09143 | -132.98301 | 36285 ft | 488 kts | 244° |
| 2026-05-07 13:14 | 32.05784 | -133.05252 | 36281 ft | 488 kts | 244° |
| 2026-05-07 13:14 | 32.02430 | -133.12158 | 36281 ft | 487 kts | 244° |
| 2026-05-07 13:15 | 31.99070 | -133.19082 | 36279 ft | 486 kts | 244° |
| 2026-05-07 13:15 | 31.95707 | -133.25988 | 36266 ft | 486 kts | 244° |
| 2026-05-07 13:16 | 31.92340 | -133.32895 | 36266 ft | 486 kts | 244° |
| 2026-05-07 13:16 | 31.88969 | -133.39795 | 36265 ft | 486 kts | 244° |
| 2026-05-07 13:17 | 31.85599 | -133.46681 | 36268 ft | 485 kts | 244° |
| 2026-05-07 13:17 | 31.82249 | -133.53513 | 36268 ft | 485 kts | 244° |
| 2026-05-07 13:18 | 31.78880 | -133.60372 | 36269 ft | 484 kts | 244° |
| 2026-05-07 13:18 | 31.75508 | -133.67226 | 36270 ft | 484 kts | 243° |
| 2026-05-07 13:19 | 31.72128 | -133.74083 | 36274 ft | 485 kts | 243° |
| 2026-05-07 13:19 | 31.68741 | -133.80939 | 36277 ft | 485 kts | 243° |
| 2026-05-07 13:20 | 31.65348 | -133.87798 | 36271 ft | 486 kts | 243° |
| 2026-05-07 13:20 | 31.61952 | -133.94650 | 36270 ft | 486 kts | 243° |
| 2026-05-07 13:21 | 31.58550 | -134.01500 | 36270 ft | 486 kts | 243° |
| 2026-05-07 13:21 | 31.55170 | -134.08295 | 36265 ft | 485 kts | 243° |
| 2026-05-07 13:22 | 31.51767 | -134.15124 | 36264 ft | 485 kts | 243° |
| 2026-05-07 13:22 | 31.48360 | -134.21948 | 36262 ft | 484 kts | 243° |
| 2026-05-07 13:23 | 31.44953 | -134.28759 | 36263 ft | 483 kts | 243° |
| 2026-05-07 13:23 | 31.41551 | -134.35551 | 36266 ft | 484 kts | 243° |
| 2026-05-07 13:24 | 31.38143 | -134.42340 | 36253 ft | 483 kts | 243° |
| 2026-05-07 13:24 | 31.34734 | -134.49121 | 36262 ft | 483 kts | 243° |
| 2026-05-07 13:25 | 31.31346 | -134.55847 | 36264 ft | 483 kts | 243° |
| 2026-05-07 13:25 | 31.27910 | -134.62656 | 36261 ft | 483 kts | 243° |
| 2026-05-07 13:26 | 31.24518 | -134.69367 | 36255 ft | 483 kts | 243° |
| 2026-05-07 13:26 | 31.21094 | -134.76129 | 36255 ft | 483 kts | 243° |
| 2026-05-07 13:27 | 31.17663 | -134.82892 | 36255 ft | 484 kts | 243° |
| 2026-05-07 13:27 | 31.14218 | -134.89672 | 36260 ft | 485 kts | 243° |
| 2026-05-07 13:28 | 31.10770 | -134.96446 | 36263 ft | 486 kts | 242° |
| 2026-05-07 13:28 | 31.07310 | -135.03231 | 36263 ft | 486 kts | 242° |
| 2026-05-07 13:29 | 31.03882 | -135.09941 | 36265 ft | 483 kts | 242° |
| 2026-05-07 13:29 | 31.00444 | -135.16661 | 36251 ft | 483 kts | 242° |
| 2026-05-07 13:30 | 30.97001 | -135.23378 | 36256 ft | 483 kts | 242° |
| 2026-05-07 13:30 | 30.93553 | -135.30093 | 36265 ft | 482 kts | 242° |
| 2026-05-07 13:31 | 30.90103 | -135.36800 | 36259 ft | 482 kts | 242° |
| 2026-05-07 13:31 | 30.86656 | -135.43490 | 36260 ft | 480 kts | 242° |
| 2026-05-07 13:32 | 30.83213 | -135.50163 | 36259 ft | 482 kts | 242° |
| 2026-05-07 13:32 | 30.79772 | -135.56816 | 36255 ft | 483 kts | 242° |
| 2026-05-07 13:33 | 30.76312 | -135.63495 | 36264 ft | 480 kts | 242° |
| 2026-05-07 13:33 | 30.72866 | -135.70141 | 36260 ft | 481 kts | 242° |
| 2026-05-07 13:34 | 30.67666 | -135.80142 | 36262 ft | 481 kts | 242° |
| 2026-05-07 13:35 | 30.64217 | -135.86761 | 36253 ft | 478 kts | 242° |
| 2026-05-07 13:35 | 30.60766 | -135.93377 | 36251 ft | 479 kts | 242° |
| 2026-05-07 13:36 | 30.57321 | -135.99964 | 36258 ft | 479 kts | 241° |
| 2026-05-07 13:36 | 30.53874 | -136.06547 | 36250 ft | 476 kts | 241° |
| 2026-05-07 13:37 | 30.50425 | -136.13125 | 36251 ft | 479 kts | 241° |
| 2026-05-07 13:37 | 30.46952 | -136.19735 | 36258 ft | 478 kts | 241° |
| 2026-05-07 13:38 | 30.43504 | -136.26285 | 36244 ft | 475 kts | 241° |
| 2026-05-07 13:38 | 30.40049 | -136.32842 | 36242 ft | 477 kts | 241° |
| 2026-05-07 13:39 | 30.36604 | -136.39365 | 36244 ft | 477 kts | 241° |
| 2026-05-07 13:39 | 30.33146 | -136.45904 | 36243 ft | 475 kts | 241° |
| 2026-05-07 13:40 | 30.29695 | -136.52419 | 36240 ft | 474 kts | 241° |
| 2026-05-07 13:40 | 30.26242 | -136.58926 | 36236 ft | 474 kts | 241° |
| 2026-05-07 13:41 | 30.22786 | -136.65429 | 36236 ft | 474 kts | 241° |
| 2026-05-07 13:41 | 30.19335 | -136.71913 | 36244 ft | 474 kts | 241° |
| 2026-05-07 13:42 | 30.15866 | -136.78418 | 36246 ft | 476 kts | 241° |
| 2026-05-07 13:42 | 30.12380 | -136.84946 | 36249 ft | 477 kts | 241° |
| 2026-05-07 13:43 | 30.08889 | -136.91470 | 36249 ft | 477 kts | 241° |
| 2026-05-07 13:43 | 30.05393 | -136.97996 | 36240 ft | 478 kts | 241° |
| 2026-05-07 13:44 | 30.01918 | -137.04469 | 36238 ft | 476 kts | 241° |
| 2026-05-07 13:44 | 29.98436 | -137.10948 | 36234 ft | 475 kts | 241° |
| 2026-05-07 13:45 | 29.94949 | -137.17425 | 36237 ft | 475 kts | 241° |
| 2026-05-07 13:45 | 29.91452 | -137.23908 | 36238 ft | 476 kts | 240° |
| 2026-05-07 13:46 | 29.87956 | -137.30382 | 36240 ft | 476 kts | 240° |
| 2026-05-07 13:46 | 29.84455 | -137.36852 | 36236 ft | 476 kts | 240° |
| 2026-05-07 13:47 | 29.80953 | -137.43315 | 36235 ft | 475 kts | 240° |
| 2026-05-07 13:47 | 29.77457 | -137.49755 | 36234 ft | 474 kts | 240° |
| 2026-05-07 13:48 | 29.73978 | -137.56155 | 36232 ft | 474 kts | 240° |
| 2026-05-07 13:48 | 29.70479 | -137.62582 | 36233 ft | 474 kts | 240° |
| 2026-05-07 13:49 | 29.66979 | -137.69000 | 36228 ft | 473 kts | 240° |
| 2026-05-07 13:49 | 29.63486 | -137.75396 | 36226 ft | 473 kts | 240° |
| 2026-05-07 13:50 | 29.59980 | -137.81805 | 36224 ft | 474 kts | 240° |
| 2026-05-07 13:50 | 29.56464 | -137.88222 | 36228 ft | 475 kts | 240° |
| 2026-05-07 13:51 | 29.52938 | -137.94646 | 36234 ft | 476 kts | 240° |
| 2026-05-07 13:51 | 29.49403 | -138.01077 | 36237 ft | 476 kts | 240° |
| 2026-05-07 13:52 | 29.45895 | -138.07450 | 36227 ft | 474 kts | 240° |
| 2026-05-07 13:52 | 29.42371 | -138.13841 | 36223 ft | 473 kts | 240° |
| 2026-05-07 13:53 | 29.38849 | -138.20219 | 36217 ft | 473 kts | 240° |
| 2026-05-07 13:53 | 29.35329 | -138.26583 | 36221 ft | 472 kts | 240° |
| 2026-05-07 13:54 | 29.31810 | -138.32935 | 36227 ft | 472 kts | 240° |
| 2026-05-07 13:54 | 29.28288 | -138.39285 | 36224 ft | 472 kts | 240° |
| 2026-05-07 13:55 | 29.25361 | -138.44553 | 36221 ft | 471 kts | 240° |
| 2026-05-07 13:55 | 29.21838 | -138.50885 | 36228 ft | 471 kts | 240° |
| 2026-05-07 13:56 | 29.18306 | -138.57223 | 36224 ft | 473 kts | 240° |
| 2026-05-07 13:56 | 29.14755 | -138.63588 | 36228 ft | 475 kts | 240° |
| 2026-05-07 13:57 | 29.11194 | -138.69957 | 36232 ft | 474 kts | 239° |
| 2026-05-07 13:57 | 29.07646 | -138.76296 | 36227 ft | 472 kts | 239° |
| 2026-05-07 13:58 | 29.04105 | -138.82611 | 36220 ft | 472 kts | 239° |
| 2026-05-07 13:58 | 29.00556 | -138.88934 | 36221 ft | 473 kts | 239° |
| 2026-05-07 13:59 | 28.96993 | -138.95268 | 36226 ft | 475 kts | 239° |
| 2026-05-07 13:59 | 28.93420 | -139.01612 | 36223 ft | 475 kts | 239° |
| 2026-05-07 14:00 | 28.89868 | -139.07909 | 36227 ft | 475 kts | 239° |
| 2026-05-07 14:00 | 28.86284 | -139.14254 | 36226 ft | 475 kts | 239° |
| 2026-05-07 14:01 | 28.82698 | -139.20591 | 36225 ft | 475 kts | 239° |
| 2026-05-07 14:01 | 28.79108 | -139.26927 | 36218 ft | 476 kts | 239° |
| 2026-05-07 14:02 | 28.75503 | -139.33280 | 36224 ft | 476 kts | 239° |
| 2026-05-07 14:02 | 28.71910 | -139.39601 | 36221 ft | 474 kts | 239° |
| 2026-05-07 14:03 | 28.68867 | -139.46193 | 36215 ft | 470 kts | 249° |
| 2026-05-07 14:03 | 28.66363 | -139.53045 | 36218 ft | 473 kts | 249° |
| 2026-05-07 14:04 | 28.63822 | -139.59949 | 36221 ft | 473 kts | 249° |
| 2026-05-07 14:04 | 28.61284 | -139.66841 | 36222 ft | 471 kts | 249° |
| 2026-05-07 14:05 | 28.58749 | -139.73714 | 36221 ft | 470 kts | 249° |
| 2026-05-07 14:05 | 28.56216 | -139.80564 | 36213 ft | 469 kts | 249° |
| 2026-05-07 14:06 | 28.53674 | -139.87431 | 36214 ft | 472 kts | 249° |
| 2026-05-07 14:06 | 28.51118 | -139.94317 | 36220 ft | 473 kts | 249° |
| 2026-05-07 14:07 | 28.48562 | -140.01194 | 36213 ft | 470 kts | 249° |
| 2026-05-07 14:07 | 28.46018 | -140.08027 | 36209 ft | 468 kts | 249° |
| 2026-05-07 14:08 | 28.43492 | -140.14799 | 36200 ft | 469 kts | 249° |
| 2026-05-07 14:08 | 28.40936 | -140.21640 | 36207 ft | 470 kts | 249° |
| 2026-05-07 14:09 | 28.38383 | -140.28458 | 36206 ft | 468 kts | 249° |
| 2026-05-07 14:09 | 28.35835 | -140.35251 | 36200 ft | 467 kts | 249° |
| 2026-05-07 14:10 | 28.33280 | -140.42050 | 36195 ft | 469 kts | 249° |
| 2026-05-07 14:10 | 28.30719 | -140.48852 | 36203 ft | 469 kts | 249° |
| 2026-05-07 14:11 | 28.28152 | -140.55660 | 36203 ft | 469 kts | 249° |
| 2026-05-07 14:11 | 28.25600 | -140.62416 | 36204 ft | 469 kts | 249° |
| 2026-05-07 14:12 | 28.23029 | -140.69209 | 36208 ft | 468 kts | 249° |
| 2026-05-07 14:12 | 28.20462 | -140.75981 | 36197 ft | 468 kts | 249° |
| 2026-05-07 14:13 | 28.17883 | -140.82773 | 36200 ft | 469 kts | 249° |
| 2026-05-07 14:13 | 28.15293 | -140.89577 | 36205 ft | 470 kts | 249° |
| 2026-05-07 14:14 | 28.12708 | -140.96359 | 36205 ft | 467 kts | 249° |
| 2026-05-07 14:14 | 28.10128 | -141.03116 | 36202 ft | 467 kts | 249° |
| 2026-05-07 14:15 | 28.07544 | -141.09871 | 36192 ft | 468 kts | 249° |
| 2026-05-07 14:15 | 28.04948 | -141.16645 | 36196 ft | 469 kts | 249° |
| 2026-05-07 14:16 | 28.02344 | -141.23431 | 36195 ft | 470 kts | 249° |
| 2026-05-07 14:16 | 27.99750 | -141.30175 | 36197 ft | 470 kts | 249° |
| 2026-05-07 14:17 | 27.97141 | -141.36948 | 36190 ft | 469 kts | 249° |
| 2026-05-07 14:17 | 27.94535 | -141.43703 | 36188 ft | 468 kts | 249° |
| 2026-05-07 14:18 | 27.91924 | -141.50456 | 36184 ft | 468 kts | 249° |
| 2026-05-07 14:18 | 27.89312 | -141.57200 | 36182 ft | 468 kts | 249° |
| 2026-05-07 14:19 | 27.86706 | -141.63919 | 36184 ft | 466 kts | 249° |
| 2026-05-07 14:19 | 27.84099 | -141.70628 | 36183 ft | 466 kts | 249° |
| 2026-05-07 14:20 | 27.81486 | -141.77341 | 36182 ft | 467 kts | 249° |
| 2026-05-07 14:20 | 27.78864 | -141.84065 | 36190 ft | 467 kts | 248° |
| 2026-05-07 14:21 | 27.76247 | -141.90766 | 36191 ft | 466 kts | 248° |
| 2026-05-07 14:21 | 27.73628 | -141.97461 | 36189 ft | 466 kts | 248° |
| 2026-05-07 14:22 | 27.71023 | -142.04106 | 36181 ft | 467 kts | 248° |
| 2026-05-07 14:22 | 27.68395 | -142.10799 | 36192 ft | 466 kts | 248° |
| 2026-05-07 14:23 | 27.65773 | -142.17466 | 36187 ft | 465 kts | 248° |
| 2026-05-07 14:23 | 27.63146 | -142.24137 | 36190 ft | 466 kts | 248° |
| 2026-05-07 14:24 | 27.60507 | -142.30823 | 36187 ft | 467 kts | 248° |
| 2026-05-07 14:24 | 27.57868 | -142.37500 | 36182 ft | 466 kts | 248° |
| 2026-05-07 14:25 | 27.55218 | -142.44193 | 36184 ft | 468 kts | 248° |
| 2026-05-07 14:25 | 27.52560 | -142.50895 | 36191 ft | 468 kts | 248° |
| 2026-05-07 14:26 | 27.49905 | -142.57576 | 36188 ft | 466 kts | 248° |
| 2026-05-07 14:26 | 27.47259 | -142.64226 | 36182 ft | 465 kts | 248° |
| 2026-05-07 14:27 | 27.44607 | -142.70880 | 36168 ft | 466 kts | 248° |
| 2026-05-07 14:27 | 27.41937 | -142.77567 | 36174 ft | 469 kts | 248° |
| 2026-05-07 14:28 | 27.39269 | -142.84237 | 36176 ft | 466 kts | 248° |
| 2026-05-07 14:28 | 27.36623 | -142.90843 | 36173 ft | 465 kts | 248° |
| 2026-05-07 14:29 | 27.33954 | -142.97494 | 36177 ft | 467 kts | 248° |
| 2026-05-07 14:29 | 27.31278 | -143.04151 | 36172 ft | 467 kts | 248° |
| 2026-05-07 14:30 | 27.28590 | -143.10827 | 36170 ft | 469 kts | 248° |
| 2026-05-07 14:30 | 27.25893 | -143.17514 | 36175 ft | 470 kts | 248° |
| 2026-05-07 14:31 | 27.23194 | -143.24195 | 36172 ft | 468 kts | 248° |
| 2026-05-07 14:31 | 27.20499 | -143.30855 | 36172 ft | 467 kts | 248° |
| 2026-05-07 14:32 | 27.17831 | -143.37438 | 36157 ft | 466 kts | 248° |
| 2026-05-07 14:32 | 27.15129 | -143.44095 | 36160 ft | 470 kts | 248° |
| 2026-05-07 14:33 | 27.12413 | -143.50774 | 36167 ft | 471 kts | 248° |
| 2026-05-07 14:33 | 27.09690 | -143.57459 | 36164 ft | 470 kts | 247° |
| 2026-05-07 14:34 | 27.06965 | -143.64137 | 36168 ft | 470 kts | 247° |
| 2026-05-07 14:34 | 27.04242 | -143.70802 | 36162 ft | 470 kts | 247° |
| 2026-05-07 14:35 | 27.01507 | -143.77483 | 36159 ft | 471 kts | 247° |
| 2026-05-07 14:35 | 26.98776 | -143.84145 | 36161 ft | 469 kts | 247° |
| 2026-05-07 14:36 | 26.96068 | -143.90738 | 36155 ft | 468 kts | 247° |
| 2026-05-07 14:36 | 26.93321 | -143.97417 | 36150 ft | 469 kts | 247° |
| 2026-05-07 14:37 | 26.90601 | -144.04020 | 36157 ft | 469 kts | 247° |
| 2026-05-07 14:37 | 26.86488 | -144.13984 | 36154 ft | 471 kts | 247° |
| 2026-05-07 14:38 | 26.83731 | -144.20647 | 36154 ft | 472 kts | 247° |
| 2026-05-07 14:38 | 26.80969 | -144.27314 | 36158 ft | 471 kts | 247° |
| 2026-05-07 14:39 | 26.78212 | -144.33957 | 36156 ft | 469 kts | 247° |
| 2026-05-07 14:39 | 26.75465 | -144.40567 | 36146 ft | 468 kts | 247° |
| 2026-05-07 14:40 | 26.72704 | -144.47198 | 36151 ft | 473 kts | 247° |
| 2026-05-07 14:40 | 26.69924 | -144.53864 | 36162 ft | 472 kts | 247° |
| 2026-05-07 14:41 | 26.67149 | -144.60508 | 36156 ft | 470 kts | 247° |
| 2026-05-07 14:41 | 26.64384 | -144.67119 | 36153 ft | 470 kts | 247° |
| 2026-05-07 14:42 | 26.62077 | -144.72626 | 36154 ft | 471 kts | 247° |
| 2026-05-07 14:42 | 26.59294 | -144.79258 | 36151 ft | 472 kts | 246° |
| 2026-05-07 14:43 | 26.56038 | -144.87004 | 36154 ft | 474 kts | 246° |
| 2026-05-07 14:43 | 26.53691 | -144.92580 | 36154 ft | 473 kts | 246° |
| 2026-05-07 14:44 | 26.50909 | -144.99181 | 36151 ft | 472 kts | 246° |
| 2026-05-07 14:44 | 26.48113 | -145.05802 | 36149 ft | 470 kts | 246° |
| 2026-05-07 14:45 | 26.45324 | -145.12398 | 36150 ft | 470 kts | 246° |
| 2026-05-07 14:45 | 26.42526 | -145.19003 | 36149 ft | 471 kts | 246° |
| 2026-05-07 14:46 | 26.39716 | -145.25627 | 36156 ft | 472 kts | 246° |
| 2026-05-07 14:46 | 26.36904 | -145.32245 | 36160 ft | 472 kts | 246° |
| 2026-05-07 14:47 | 26.34087 | -145.38865 | 36156 ft | 472 kts | 246° |
| 2026-05-07 14:47 | 26.31293 | -145.45420 | 36155 ft | 471 kts | 246° |
| 2026-05-07 14:48 | 26.28478 | -145.52015 | 36144 ft | 472 kts | 246° |
| 2026-05-07 14:48 | 26.25646 | -145.58639 | 36145 ft | 474 kts | 246° |
| 2026-05-07 14:49 | 26.22809 | -145.65264 | 36146 ft | 473 kts | 246° |
| 2026-05-07 14:49 | 26.19972 | -145.71878 | 36146 ft | 473 kts | 246° |
| 2026-05-07 14:50 | 26.17135 | -145.78483 | 36149 ft | 472 kts | 246° |
| 2026-05-07 14:50 | 26.14314 | -145.85041 | 36145 ft | 472 kts | 246° |
| 2026-05-07 14:51 | 26.11467 | -145.91648 | 36140 ft | 474 kts | 246° |
| 2026-05-07 14:51 | 26.08610 | -145.98267 | 36145 ft | 475 kts | 246° |
| 2026-05-07 14:52 | 26.05749 | -146.04886 | 36143 ft | 475 kts | 246° |
| 2026-05-07 14:52 | 26.02881 | -146.11512 | 36144 ft | 475 kts | 246° |
| 2026-05-07 14:53 | 26.00017 | -146.18118 | 36144 ft | 474 kts | 246° |
| 2026-05-07 14:53 | 25.97154 | -146.24727 | 36132 ft | 475 kts | 246° |
| 2026-05-07 14:54 | 25.94282 | -146.31341 | 36138 ft | 476 kts | 246° |
| 2026-05-07 14:54 | 25.91407 | -146.37956 | 36139 ft | 475 kts | 246° |
| 2026-05-07 14:55 | 25.88550 | -146.44517 | 36137 ft | 474 kts | 246° |
| 2026-05-07 14:55 | 25.85682 | -146.51093 | 36135 ft | 473 kts | 246° |
| 2026-05-07 14:56 | 25.82811 | -146.57669 | 36132 ft | 474 kts | 245° |
| 2026-05-07 14:56 | 25.79926 | -146.64263 | 36141 ft | 476 kts | 245° |
| 2026-05-07 14:57 | 25.77031 | -146.70872 | 36155 ft | 476 kts | 245° |
| 2026-05-07 14:57 | 25.74153 | -146.77432 | 36155 ft | 475 kts | 245° |
| 2026-05-07 14:58 | 25.71261 | -146.84014 | 36144 ft | 474 kts | 245° |
| 2026-05-07 14:58 | 25.68368 | -146.90588 | 36142 ft | 474 kts | 245° |
| 2026-05-07 14:59 | 25.65472 | -146.97159 | 36143 ft | 474 kts | 245° |
| 2026-05-07 14:59 | 25.62568 | -147.03739 | 36145 ft | 476 kts | 245° |
| 2026-05-07 15:00 | 25.59648 | -147.10344 | 36147 ft | 477 kts | 245° |
| 2026-05-07 15:00 | 25.56729 | -147.16937 | 36143 ft | 476 kts | 245° |
| 2026-05-07 15:01 | 25.53831 | -147.23475 | 36143 ft | 475 kts | 245° |
| 2026-05-07 15:01 | 25.50899 | -147.30076 | 36141 ft | 474 kts | 245° |
| 2026-05-07 15:02 | 25.48003 | -147.36591 | 36134 ft | 475 kts | 245° |
| 2026-05-07 15:02 | 25.45071 | -147.43175 | 36143 ft | 478 kts | 245° |
| 2026-05-07 15:03 | 25.42134 | -147.49759 | 36138 ft | 477 kts | 245° |
| 2026-05-07 15:03 | 25.39196 | -147.56337 | 36144 ft | 477 kts | 245° |
| 2026-05-07 15:04 | 25.36257 | -147.62906 | 36135 ft | 476 kts | 245° |
| 2026-05-07 15:04 | 25.33316 | -147.69471 | 36145 ft | 476 kts | 245° |
| 2026-05-07 15:05 | 25.30371 | -147.76036 | 36131 ft | 478 kts | 245° |
| 2026-05-07 15:05 | 25.27431 | -147.82579 | 36138 ft | 479 kts | 245° |
| 2026-05-07 15:06 | 25.24465 | -147.89170 | 36137 ft | 479 kts | 245° |
| 2026-05-07 15:06 | 25.21498 | -147.95755 | 36130 ft | 478 kts | 245° |
| 2026-05-07 15:07 | 25.18533 | -148.02323 | 36131 ft | 476 kts | 245° |
| 2026-05-07 15:07 | 25.15577 | -148.08864 | 36124 ft | 475 kts | 245° |
| 2026-05-07 15:08 | 25.12613 | -148.15412 | 36127 ft | 478 kts | 245° |
| 2026-05-07 15:08 | 25.09653 | -148.21943 | 36138 ft | 479 kts | 245° |
| 2026-05-07 15:09 | 25.06666 | -148.28524 | 36137 ft | 480 kts | 245° |
| 2026-05-07 15:09 | 25.03674 | -148.35104 | 36135 ft | 480 kts | 245° |
| 2026-05-07 15:10 | 25.00681 | -148.41679 | 36139 ft | 480 kts | 245° |
| 2026-05-07 15:10 | 24.97684 | -148.48252 | 36135 ft | 480 kts | 244° |
| 2026-05-07 15:11 | 24.94687 | -148.54816 | 36140 ft | 480 kts | 244° |
| 2026-05-07 15:11 | 24.91688 | -148.61376 | 36138 ft | 479 kts | 244° |
| 2026-05-07 15:12 | 24.88685 | -148.67932 | 36131 ft | 479 kts | 244° |
| 2026-05-07 15:12 | 24.85677 | -148.74492 | 36134 ft | 479 kts | 244° |
| 2026-05-07 15:13 | 24.82687 | -148.81003 | 36136 ft | 479 kts | 244° |
| 2026-05-07 15:13 | 24.79675 | -148.87554 | 36134 ft | 479 kts | 244° |
| 2026-05-07 15:14 | 24.76662 | -148.94096 | 36134 ft | 479 kts | 244° |
| 2026-05-07 15:14 | 24.73644 | -149.00639 | 36132 ft | 479 kts | 244° |
| 2026-05-07 15:15 | 24.70627 | -149.07172 | 36135 ft | 478 kts | 244° |
| 2026-05-07 15:15 | 24.67610 | -149.13694 | 36127 ft | 477 kts | 244° |
| 2026-05-07 15:16 | 24.64601 | -149.20192 | 36126 ft | 477 kts | 244° |
| 2026-05-07 15:16 | 24.61583 | -149.26698 | 36115 ft | 479 kts | 244° |
| 2026-05-07 15:17 | 24.58565 | -149.33194 | 36129 ft | 481 kts | 244° |
| 2026-05-07 15:17 | 24.55523 | -149.39737 | 36128 ft | 481 kts | 244° |
| 2026-05-07 15:18 | 24.52474 | -149.46281 | 36127 ft | 481 kts | 244° |
| 2026-05-07 15:18 | 24.49427 | -149.52814 | 36126 ft | 480 kts | 244° |
| 2026-05-07 15:19 | 24.46380 | -149.59337 | 36128 ft | 480 kts | 244° |
| 2026-05-07 15:19 | 24.43330 | -149.65858 | 36116 ft | 479 kts | 244° |
| 2026-05-07 15:20 | 24.40282 | -149.72364 | 36115 ft | 480 kts | 244° |
| 2026-05-07 15:20 | 24.37225 | -149.78881 | 36115 ft | 480 kts | 244° |
| 2026-05-07 15:21 | 24.34164 | -149.85398 | 36115 ft | 480 kts | 244° |
| 2026-05-07 15:21 | 24.31095 | -149.91922 | 36122 ft | 480 kts | 244° |
| 2026-05-07 15:22 | 24.28053 | -149.98381 | 36121 ft | 479 kts | 244° |
| 2026-05-07 15:22 | 24.24994 | -150.04866 | 36111 ft | 479 kts | 243° |
| 2026-05-07 15:23 | 24.21919 | -150.11376 | 36118 ft | 481 kts | 243° |
| 2026-05-07 15:23 | 24.18838 | -150.17890 | 36125 ft | 482 kts | 243° |
| 2026-05-07 15:24 | 24.15746 | -150.24418 | 36124 ft | 482 kts | 243° |
| 2026-05-07 15:24 | 24.12658 | -150.30929 | 36121 ft | 482 kts | 243° |
| 2026-05-07 15:25 | 24.09564 | -150.37443 | 36123 ft | 481 kts | 243° |
| 2026-05-07 15:25 | 24.06495 | -150.43896 | 36121 ft | 481 kts | 243° |
| 2026-05-07 15:26 | 24.03400 | -150.50396 | 36119 ft | 483 kts | 243° |
| 2026-05-07 15:26 | 24.00288 | -150.56922 | 36121 ft | 484 kts | 243° |
| 2026-05-07 15:27 | 23.97171 | -150.63448 | 36122 ft | 483 kts | 243° |
| 2026-05-07 15:27 | 23.94061 | -150.69952 | 36123 ft | 482 kts | 243° |
| 2026-05-07 15:28 | 23.90957 | -150.76434 | 36118 ft | 481 kts | 243° |
| 2026-05-07 15:28 | 23.87854 | -150.82905 | 36116 ft | 480 kts | 243° |
| 2026-05-07 15:29 | 23.84751 | -150.89367 | 36108 ft | 481 kts | 243° |
| 2026-05-07 15:29 | 23.81646 | -150.95825 | 36113 ft | 484 kts | 243° |
| 2026-05-07 15:30 | 23.78513 | -151.02331 | 36114 ft | 483 kts | 243° |
| 2026-05-07 15:30 | 23.75386 | -151.08819 | 36115 ft | 482 kts | 243° |
| 2026-05-07 15:31 | 23.72262 | -151.15289 | 36110 ft | 481 kts | 243° |
| 2026-05-07 15:31 | 23.69135 | -151.21759 | 36108 ft | 482 kts | 243° |
| 2026-05-07 15:32 | 23.66007 | -151.28221 | 36106 ft | 482 kts | 242° |
| 2026-05-07 15:32 | 23.62878 | -151.34676 | 36106 ft | 481 kts | 242° |
| 2026-05-07 15:33 | 23.60272 | -151.40046 | 36105 ft | 482 kts | 242° |
| 2026-05-07 15:33 | 23.57135 | -151.46503 | 36107 ft | 482 kts | 242° |
| 2026-05-07 15:34 | 23.53992 | -151.52963 | 36110 ft | 483 kts | 242° |
| 2026-05-07 15:34 | 23.50844 | -151.59426 | 36113 ft | 483 kts | 242° |
| 2026-05-07 15:35 | 23.47687 | -151.65897 | 36117 ft | 483 kts | 242° |
| 2026-05-07 15:35 | 23.44528 | -151.72364 | 36113 ft | 484 kts | 242° |
| 2026-05-07 15:36 | 23.41361 | -151.78839 | 36115 ft | 484 kts | 242° |
| 2026-05-07 15:36 | 23.38191 | -151.85311 | 36113 ft | 484 kts | 242° |
| 2026-05-07 15:37 | 23.35019 | -151.91781 | 36114 ft | 484 kts | 242° |
| 2026-05-07 15:37 | 23.31869 | -151.98196 | 36111 ft | 483 kts | 242° |
| 2026-05-07 15:38 | 23.28703 | -152.04635 | 36109 ft | 482 kts | 242° |
| 2026-05-07 15:38 | 23.25542 | -152.11056 | 36098 ft | 481 kts | 242° |
| 2026-05-07 15:39 | 23.22383 | -152.17464 | 36098 ft | 481 kts | 242° |
| 2026-05-07 15:39 | 23.19215 | -152.23881 | 36102 ft | 482 kts | 242° |
| 2026-05-07 15:40 | 23.16035 | -152.30316 | 36105 ft | 482 kts | 242° |
| 2026-05-07 15:40 | 23.12859 | -152.36734 | 36108 ft | 482 kts | 242° |
| 2026-05-07 15:41 | 23.09681 | -152.43146 | 36106 ft | 482 kts | 242° |
| 2026-05-07 15:41 | 23.06497 | -152.49565 | 36108 ft | 483 kts | 242° |
| 2026-05-07 15:42 | 23.03328 | -152.55942 | 36104 ft | 483 kts | 242° |
| 2026-05-07 15:42 | 23.00132 | -152.62346 | 36106 ft | 482 kts | 241° |
| 2026-05-07 15:43 | 22.96922 | -152.68733 | 36106 ft | 482 kts | 242° |
| 2026-05-07 15:43 | 22.93720 | -152.75119 | 36106 ft | 482 kts | 241° |
| 2026-05-07 15:44 | 22.90509 | -152.81500 | 36105 ft | 482 kts | 241° |
| 2026-05-07 15:44 | 22.87296 | -152.87887 | 36103 ft | 482 kts | 241° |
| 2026-05-07 15:45 | 22.84081 | -152.94264 | 36106 ft | 482 kts | 241° |
| 2026-05-07 15:45 | 22.80863 | -153.00640 | 36107 ft | 482 kts | 241° |
| 2026-05-07 15:46 | 22.76031 | -153.10200 | 36109 ft | 482 kts | 241° |
| 2026-05-07 15:47 | 22.72807 | -153.16569 | 36106 ft | 483 kts | 241° |
| 2026-05-07 15:47 | 22.69575 | -153.22946 | 36108 ft | 483 kts | 241° |
| 2026-05-07 15:48 | 22.66335 | -153.29331 | 36109 ft | 484 kts | 241° |
| 2026-05-07 15:48 | 22.63088 | -153.35719 | 36104 ft | 484 kts | 241° |
| 2026-05-07 15:49 | 22.59876 | -153.42033 | 36102 ft | 482 kts | 241° |
| 2026-05-07 15:49 | 22.56643 | -153.48380 | 36098 ft | 481 kts | 241° |
| 2026-05-07 15:50 | 22.53412 | -153.54714 | 36100 ft | 480 kts | 241° |
| 2026-05-07 15:50 | 22.50186 | -153.61032 | 36094 ft | 480 kts | 241° |
| 2026-05-07 15:51 | 22.46955 | -153.67351 | 36091 ft | 480 kts | 241° |
| 2026-05-07 15:51 | 22.43718 | -153.73674 | 36097 ft | 482 kts | 241° |
| 2026-05-07 15:52 | 22.40463 | -153.80024 | 36102 ft | 482 kts | 241° |
| 2026-05-07 15:52 | 22.37236 | -153.86313 | 36104 ft | 481 kts | 241° |
| 2026-05-07 15:53 | 22.33852 | -153.92538 | 36105 ft | 481 kts | 239° |
| 2026-05-07 15:53 | 22.30473 | -153.98794 | 36113 ft | 483 kts | 239° |
| 2026-05-07 15:54 | 22.27024 | -154.05022 | 36113 ft | 483 kts | 239° |
| 2026-05-07 15:54 | 22.23618 | -154.11247 | 36104 ft | 481 kts | 239° |
| 2026-05-07 15:55 | 22.20223 | -154.17400 | 36097 ft | 479 kts | 239° |
| 2026-05-07 15:55 | 22.16802 | -154.23616 | 36094 ft | 478 kts | 239° |
| 2026-05-07 15:56 | 22.13421 | -154.29742 | 36095 ft | 479 kts | 239° |
| 2026-05-07 15:56 | 22.10004 | -154.35931 | 36098 ft | 480 kts | 239° |
| 2026-05-07 15:57 | 22.06578 | -154.42126 | 36101 ft | 480 kts | 239° |
| 2026-05-07 15:57 | 22.03161 | -154.48299 | 36100 ft | 479 kts | 239° |
| 2026-05-07 15:58 | 21.99750 | -154.54453 | 36098 ft | 478 kts | 239° |
| 2026-05-07 15:58 | 21.96363 | -154.60557 | 36094 ft | 477 kts | 239° |
| 2026-05-07 15:59 | 21.92962 | -154.66680 | 36092 ft | 476 kts | 239° |
| 2026-05-07 15:59 | 21.89550 | -154.72814 | 36094 ft | 478 kts | 239° |
| 2026-05-07 16:00 | 21.86125 | -154.78966 | 36100 ft | 479 kts | 239° |
| 2026-05-07 16:00 | 21.82697 | -154.85117 | 36102 ft | 478 kts | 239° |
| 2026-05-07 16:01 | 21.79282 | -154.91235 | 36098 ft | 476 kts | 239° |
| 2026-05-07 16:01 | 21.75867 | -154.97348 | 36100 ft | 477 kts | 239° |
| 2026-05-07 16:02 | 21.72452 | -155.03454 | 36094 ft | 475 kts | 239° |
| 2026-05-07 16:02 | 21.69050 | -155.09529 | 36093 ft | 474 kts | 239° |
| 2026-05-07 16:03 | 21.65663 | -155.15572 | 36092 ft | 475 kts | 239° |
| 2026-05-07 16:03 | 21.62251 | -155.21650 | 36093 ft | 475 kts | 239° |
| 2026-05-07 16:04 | 21.58836 | -155.27730 | 36099 ft | 475 kts | 239° |
| 2026-05-07 16:04 | 21.55418 | -155.33807 | 36101 ft | 475 kts | 239° |
| 2026-05-07 16:05 | 21.51999 | -155.39878 | 36101 ft | 474 kts | 239° |
| 2026-05-07 16:05 | 21.48588 | -155.45930 | 36095 ft | 473 kts | 239° |
| 2026-05-07 16:06 | 21.45182 | -155.51966 | 36097 ft | 472 kts | 239° |
| 2026-05-07 16:06 | 21.41778 | -155.57990 | 36096 ft | 472 kts | 239° |
| 2026-05-07 16:07 | 21.38389 | -155.63983 | 36100 ft | 472 kts | 239° |
| 2026-05-07 16:07 | 21.34977 | -155.70008 | 36097 ft | 472 kts | 239° |
| 2026-05-07 16:08 | 21.31563 | -155.76031 | 36100 ft | 472 kts | 239° |
| 2026-05-07 16:08 | 21.28146 | -155.82054 | 36101 ft | 473 kts | 239° |
| 2026-05-07 16:09 | 21.24731 | -155.88065 | 36092 ft | 471 kts | 239° |
| 2026-05-07 16:09 | 21.21322 | -155.94061 | 36097 ft | 470 kts | 239° |
| 2026-05-07 16:10 | 21.17909 | -156.00055 | 36101 ft | 471 kts | 239° |
| 2026-05-07 16:10 | 21.14488 | -156.06058 | 36108 ft | 472 kts | 239° |
| 2026-05-07 16:11 | 21.11082 | -156.12028 | 36111 ft | 473 kts | 239° |
| 2026-05-07 16:11 | 21.07653 | -156.18031 | 36115 ft | 472 kts | 239° |
| 2026-05-07 16:12 | 21.04231 | -156.24016 | 36111 ft | 471 kts | 239° |
| 2026-05-07 16:12 | 21.00816 | -156.29983 | 36103 ft | 468 kts | 239° |
| 2026-05-07 16:13 | 20.97408 | -156.35933 | 36101 ft | 469 kts | 239° |
| 2026-05-07 16:13 | 20.93994 | -156.41884 | 36104 ft | 470 kts | 239° |
| 2026-05-07 16:14 | 20.90571 | -156.47845 | 36107 ft | 470 kts | 239° |
| 2026-05-07 16:14 | 20.87143 | -156.53809 | 36109 ft | 470 kts | 239° |
| 2026-05-07 16:15 | 20.83715 | -156.59767 | 36109 ft | 471 kts | 239° |
| 2026-05-07 16:15 | 20.80282 | -156.65727 | 36101 ft | 470 kts | 239° |
| 2026-05-07 16:16 | 20.76860 | -156.71661 | 36090 ft | 467 kts | 239° |
| 2026-05-07 16:16 | 20.73474 | -156.77527 | 36085 ft | 467 kts | 239° |
| 2026-05-07 16:17 | 20.70060 | -156.83436 | 36086 ft | 467 kts | 239° |
| 2026-05-07 16:17 | 20.66648 | -156.89335 | 36081 ft | 466 kts | 239° |
| 2026-05-07 16:18 | 20.63230 | -156.95238 | 36084 ft | 468 kts | 239° |
| 2026-05-07 16:18 | 20.59797 | -157.01161 | 36087 ft | 469 kts | 239° |
| 2026-05-07 16:19 | 20.56360 | -157.07083 | 36085 ft | 469 kts | 239° |
| 2026-05-07 16:19 | 20.52920 | -157.13007 | 36084 ft | 470 kts | 239° |
| 2026-05-07 16:20 | 20.49493 | -157.18901 | 36086 ft | 470 kts | 239° |
| 2026-05-07 16:20 | 20.46047 | -157.24822 | 36086 ft | 470 kts | 239° |
| 2026-05-07 16:21 | 20.42594 | -157.30748 | 36091 ft | 471 kts | 239° |
| 2026-05-07 16:21 | 20.39129 | -157.36689 | 36092 ft | 471 kts | 239° |
| 2026-05-07 16:22 | 20.35675 | -157.42605 | 36090 ft | 469 kts | 239° |
| 2026-05-07 16:22 | 20.32233 | -157.48496 | 36084 ft | 468 kts | 239° |
| 2026-05-07 16:23 | 20.29374 | -157.53384 | 36079 ft | 467 kts | 239° |
| 2026-05-07 16:23 | 20.25937 | -157.59253 | 36074 ft | 466 kts | 239° |
| 2026-05-07 16:24 | 20.22497 | -157.65123 | 36079 ft | 467 kts | 239° |
| 2026-05-07 16:24 | 20.19050 | -157.70998 | 36081 ft | 469 kts | 239° |
| 2026-05-07 16:25 | 20.15026 | -157.77849 | 36083 ft | 470 kts | 239° |
| 2026-05-07 16:25 | 20.12119 | -157.82793 | 36081 ft | 471 kts | 239° |
| 2026-05-07 16:26 | 20.08643 | -157.88700 | 36085 ft | 470 kts | 239° |
| 2026-05-07 16:26 | 20.05176 | -157.94586 | 36086 ft | 468 kts | 239° |
| 2026-05-07 16:27 | 20.01746 | -158.00403 | 36076 ft | 466 kts | 240° |
| 2026-05-07 16:27 | 19.98305 | -158.06233 | 36074 ft | 466 kts | 240° |
| 2026-05-07 16:28 | 19.94852 | -158.12077 | 36074 ft | 467 kts | 240° |
| 2026-05-07 16:28 | 19.91392 | -158.17928 | 36080 ft | 468 kts | 240° |
| 2026-05-07 16:29 | 19.87926 | -158.23781 | 36079 ft | 468 kts | 240° |
| 2026-05-07 16:29 | 19.84460 | -158.29631 | 36075 ft | 468 kts | 240° |
| 2026-05-07 16:30 | 19.80993 | -158.35476 | 36073 ft | 467 kts | 240° |
| 2026-05-07 16:30 | 19.77523 | -158.41320 | 36062 ft | 467 kts | 240° |
| 2026-05-07 16:31 | 19.74059 | -158.47149 | 36074 ft | 465 kts | 240° |
| 2026-05-07 16:31 | 19.70632 | -158.52909 | 36073 ft | 465 kts | 240° |
| 2026-05-07 16:32 | 19.67182 | -158.58703 | 36078 ft | 465 kts | 240° |
| 2026-05-07 16:32 | 19.63726 | -158.64501 | 36077 ft | 465 kts | 240° |
| 2026-05-07 16:33 | 19.60268 | -158.70297 | 36075 ft | 465 kts | 240° |
| 2026-05-07 16:33 | 19.56807 | -158.76091 | 36071 ft | 464 kts | 240° |
| 2026-05-07 16:34 | 19.53354 | -158.81869 | 36071 ft | 464 kts | 240° |
| 2026-05-07 16:34 | 19.49891 | -158.87655 | 36076 ft | 463 kts | 241° |
| 2026-05-07 16:35 | 19.46444 | -158.93411 | 36076 ft | 462 kts | 241° |
| 2026-05-07 16:35 | 19.42999 | -158.99156 | 36069 ft | 462 kts | 241° |
| 2026-05-07 16:36 | 19.39555 | -159.04896 | 36074 ft | 462 kts | 241° |
| 2026-05-07 16:36 | 19.36129 | -159.10600 | 36075 ft | 462 kts | 241° |
| 2026-05-07 16:37 | 19.32681 | -159.16335 | 36075 ft | 462 kts | 241° |
| 2026-05-07 16:37 | 19.29223 | -159.22081 | 36076 ft | 462 kts | 241° |
| 2026-05-07 16:38 | 19.25769 | -159.27815 | 36072 ft | 462 kts | 241° |
| 2026-05-07 16:38 | 19.22326 | -159.33524 | 36068 ft | 457 kts | 242° |
| 2026-05-07 16:39 | 19.18907 | -159.39193 | 36070 ft | 458 kts | 242° |
| 2026-05-07 16:39 | 19.15467 | -159.44887 | 36075 ft | 460 kts | 242° |
| 2026-05-07 16:40 | 19.12015 | -159.50597 | 36074 ft | 460 kts | 242° |
| 2026-05-07 16:40 | 19.08443 | -159.56209 | 36097 ft | 463 kts | 235° |
| 2026-05-07 16:41 | 19.03647 | -159.60817 | 36093 ft | 478 kts | 219° |
| 2026-05-07 16:41 | 18.98051 | -159.64619 | 36078 ft | 477 kts | 219° |
| 2026-05-07 16:42 | 18.92467 | -159.68387 | 36069 ft | 475 kts | 220° |
| 2026-05-07 16:42 | 18.86912 | -159.72145 | 36069 ft | 475 kts | 220° |
| 2026-05-07 16:43 | 18.81335 | -159.75907 | 36070 ft | 476 kts | 220° |
| 2026-05-07 16:43 | 18.75748 | -159.79676 | 36070 ft | 477 kts | 220° |
| 2026-05-07 16:44 | 18.70149 | -159.83449 | 36074 ft | 478 kts | 220° |
| 2026-05-07 16:44 | 18.64548 | -159.87220 | 36058 ft | 477 kts | 221° |
| 2026-05-07 16:45 | 18.58980 | -159.90967 | 36060 ft | 474 kts | 221° |
| 2026-05-07 16:45 | 18.53414 | -159.94710 | 36061 ft | 474 kts | 221° |
| 2026-05-07 16:46 | 18.47853 | -159.98446 | 36060 ft | 474 kts | 221° |
| 2026-05-07 16:46 | 18.42281 | -160.02187 | 36059 ft | 475 kts | 221° |
| 2026-05-07 16:47 | 18.36705 | -160.05926 | 36044 ft | 475 kts | 221° |
| 2026-05-07 16:47 | 18.31175 | -160.09633 | 36067 ft | 474 kts | 221° |
| 2026-05-07 16:48 | 18.25612 | -160.13359 | 36062 ft | 474 kts | 221° |
| 2026-05-07 16:48 | 18.20051 | -160.17080 | 36062 ft | 474 kts | 221° |
| 2026-05-07 16:49 | 18.14485 | -160.20803 | 36054 ft | 473 kts | 221° |
| 2026-05-07 16:49 | 18.08927 | -160.24517 | 36054 ft | 473 kts | 221° |
| 2026-05-07 16:50 | 18.03366 | -160.28228 | 36060 ft | 474 kts | 221° |
| 2026-05-07 16:50 | 17.97774 | -160.31924 | 36063 ft | 476 kts | 220° |
| 2026-05-07 16:51 | 17.92170 | -160.35638 | 36059 ft | 476 kts | 221° |
| 2026-05-07 16:51 | 17.86573 | -160.39340 | 36060 ft | 475 kts | 221° |
| 2026-05-07 16:52 | 17.81029 | -160.43006 | 36058 ft | 474 kts | 221° |
| 2026-05-07 16:52 | 17.75457 | -160.46686 | 36057 ft | 473 kts | 221° |
| 2026-05-07 16:53 | 17.69892 | -160.50360 | 36052 ft | 472 kts | 221° |
| 2026-05-07 16:53 | 17.64317 | -160.54039 | 36048 ft | 474 kts | 220° |
| 2026-05-07 16:54 | 17.58714 | -160.57732 | 36053 ft | 476 kts | 220° |
| 2026-05-07 16:54 | 17.53107 | -160.61425 | 36064 ft | 476 kts | 220° |
| 2026-05-07 16:55 | 17.47491 | -160.65121 | 36067 ft | 476 kts | 220° |
| 2026-05-07 16:55 | 17.41885 | -160.68809 | 36053 ft | 476 kts | 220° |
| 2026-05-07 16:56 | 17.36302 | -160.72478 | 36048 ft | 477 kts | 220° |
| 2026-05-07 16:56 | 17.27849 | -160.78027 | 36055 ft | 477 kts | 220° |
| 2026-05-07 16:57 | 17.22230 | -160.81715 | 36045 ft | 476 kts | 220° |
| 2026-05-07 16:57 | 17.16618 | -160.85393 | 36035 ft | 475 kts | 220° |
| 2026-05-07 16:58 | 17.11018 | -160.89062 | 36049 ft | 476 kts | 220° |
| 2026-05-07 16:58 | 17.05398 | -160.92741 | 36045 ft | 477 kts | 220° |
| 2026-05-07 16:59 | 16.99767 | -160.96424 | 36048 ft | 477 kts | 220° |
| 2026-05-07 16:59 | 16.94173 | -161.00081 | 36046 ft | 478 kts | 220° |
| 2026-05-07 17:00 | 16.88534 | -161.03764 | 36048 ft | 478 kts | 220° |
| 2026-05-07 17:00 | 16.82890 | -161.07448 | 36037 ft | 478 kts | 220° |
| 2026-05-07 17:01 | 16.77260 | -161.11121 | 36043 ft | 477 kts | 219° |
| 2026-05-07 17:01 | 16.71636 | -161.14786 | 36040 ft | 476 kts | 219° |
| 2026-05-07 17:02 | 16.66015 | -161.18447 | 36039 ft | 476 kts | 219° |
| 2026-05-07 17:02 | 16.60399 | -161.22103 | 36037 ft | 475 kts | 219° |
| 2026-05-07 17:03 | 16.54788 | -161.25752 | 36031 ft | 475 kts | 219° |
| 2026-05-07 17:03 | 16.49186 | -161.29394 | 36035 ft | 475 kts | 219° |
| 2026-05-07 17:04 | 16.43557 | -161.33051 | 36029 ft | 478 kts | 219° |
| 2026-05-07 17:04 | 16.37952 | -161.36688 | 36035 ft | 478 kts | 219° |
| 2026-05-07 17:05 | 16.32310 | -161.40348 | 36041 ft | 478 kts | 219° |
| 2026-05-07 17:05 | 16.26661 | -161.44009 | 36048 ft | 478 kts | 219° |
| 2026-05-07 17:06 | 16.21019 | -161.47664 | 36025 ft | 477 kts | 219° |
| 2026-05-07 17:06 | 16.15379 | -161.51316 | 36039 ft | 478 kts | 219° |
| 2026-05-07 17:07 | 16.09719 | -161.54976 | 36042 ft | 479 kts | 219° |
| 2026-05-07 17:07 | 16.04088 | -161.58616 | 36039 ft | 478 kts | 219° |
| 2026-05-07 17:08 | 15.98452 | -161.62256 | 36030 ft | 476 kts | 219° |
| 2026-05-07 17:08 | 15.92823 | -161.65891 | 36029 ft | 476 kts | 219° |
| 2026-05-07 17:09 | 15.87189 | -161.69526 | 36028 ft | 477 kts | 218° |
| 2026-05-07 17:09 | 15.81540 | -161.73168 | 36025 ft | 479 kts | 218° |
| 2026-05-07 17:10 | 15.75873 | -161.76818 | 36025 ft | 479 kts | 218° |
| 2026-05-07 17:10 | 15.70214 | -161.80461 | 36026 ft | 478 kts | 218° |
| 2026-05-07 17:11 | 15.64566 | -161.84096 | 36025 ft | 477 kts | 218° |
| 2026-05-07 17:11 | 15.59878 | -161.87110 | 36022 ft | 476 kts | 218° |
| 2026-05-07 17:12 | 15.53336 | -161.91315 | 36017 ft | 477 kts | 218° |
| 2026-05-07 17:12 | 15.48605 | -161.94353 | 36019 ft | 477 kts | 218° |
| 2026-05-07 17:13 | 15.42959 | -161.97976 | 36016 ft | 477 kts | 218° |
| 2026-05-07 17:13 | 15.37313 | -162.01598 | 36016 ft | 478 kts | 218° |
| 2026-05-07 17:14 | 15.31691 | -162.05201 | 36021 ft | 478 kts | 218° |
| 2026-05-07 17:14 | 15.26032 | -162.08827 | 36023 ft | 478 kts | 218° |
| 2026-05-07 17:15 | 15.20371 | -162.12450 | 36018 ft | 478 kts | 218° |
| 2026-05-07 17:15 | 15.14712 | -162.16070 | 36013 ft | 478 kts | 218° |
| 2026-05-07 17:16 | 15.09084 | -162.19669 | 36015 ft | 478 kts | 218° |
| 2026-05-07 17:16 | 15.03417 | -162.23289 | 36013 ft | 478 kts | 218° |
| 2026-05-07 17:17 | 14.97754 | -162.26905 | 36017 ft | 478 kts | 217° |
| 2026-05-07 17:17 | 14.92104 | -162.30511 | 36005 ft | 476 kts | 217° |
| 2026-05-07 17:18 | 14.86450 | -162.34118 | 36007 ft | 479 kts | 217° |
| 2026-05-07 17:18 | 14.80777 | -162.37732 | 36010 ft | 479 kts | 217° |
| 2026-05-07 17:19 | 14.75093 | -162.41352 | 36007 ft | 479 kts | 217° |
| 2026-05-07 17:19 | 14.69416 | -162.44966 | 36008 ft | 479 kts | 217° |
| 2026-05-07 17:20 | 14.63735 | -162.48580 | 36008 ft | 479 kts | 217° |
| 2026-05-07 17:20 | 14.58095 | -162.52166 | 36009 ft | 479 kts | 217° |
| 2026-05-07 17:21 | 14.52419 | -162.55772 | 36004 ft | 479 kts | 217° |
| 2026-05-07 17:21 | 14.46737 | -162.59380 | 36004 ft | 479 kts | 217° |
| 2026-05-07 17:22 | 14.41062 | -162.62981 | 36008 ft | 478 kts | 217° |
| 2026-05-07 17:22 | 14.35390 | -162.66578 | 36007 ft | 478 kts | 217° |
| 2026-05-07 17:23 | 14.29730 | -162.70166 | 36006 ft | 477 kts | 217° |
| 2026-05-07 17:23 | 14.24059 | -162.73759 | 36000 ft | 480 kts | 217° |
| 2026-05-07 17:24 | 14.18354 | -162.77370 | 36004 ft | 481 kts | 217° |
| 2026-05-07 17:24 | 14.12691 | -162.80953 | 36007 ft | 480 kts | 217° |
| 2026-05-07 17:25 | 14.06991 | -162.84557 | 36004 ft | 480 kts | 217° |
| 2026-05-07 17:25 | 14.01301 | -162.88153 | 36004 ft | 480 kts | 217° |
| 2026-05-07 17:26 | 13.95597 | -162.91755 | 35994 ft | 480 kts | 217° |
| 2026-05-07 17:26 | 13.89895 | -162.95355 | 35993 ft | 482 kts | 217° |
| 2026-05-07 17:27 | 13.84183 | -162.98957 | 35993 ft | 481 kts | 217° |
| 2026-05-07 17:27 | 13.78481 | -163.02552 | 35988 ft | 480 kts | 217° |
| 2026-05-07 17:28 | 13.72793 | -163.06136 | 35987 ft | 479 kts | 217° |
| 2026-05-07 17:28 | 13.67103 | -163.09720 | 35985 ft | 480 kts | 217° |
| 2026-05-07 17:29 | 13.61400 | -163.13309 | 35984 ft | 480 kts | 216° |
| 2026-05-07 17:29 | 13.55718 | -163.16883 | 35988 ft | 482 kts | 216° |
| 2026-05-07 17:30 | 13.49981 | -163.20490 | 35992 ft | 483 kts | 216° |
| 2026-05-07 17:30 | 13.44250 | -163.24090 | 35994 ft | 483 kts | 216° |
| 2026-05-07 17:31 | 13.38522 | -163.27687 | 35992 ft | 482 kts | 216° |
| 2026-05-07 17:31 | 13.32803 | -163.31276 | 35991 ft | 481 kts | 216° |
| 2026-05-07 17:32 | 13.27091 | -163.34859 | 35977 ft | 480 kts | 216° |
| 2026-05-07 17:32 | 13.21427 | -163.38409 | 35976 ft | 479 kts | 216° |
| 2026-05-07 17:33 | 13.15743 | -163.41971 | 35978 ft | 479 kts | 216° |
| 2026-05-07 17:33 | 13.10036 | -163.45545 | 35981 ft | 481 kts | 216° |
| 2026-05-07 17:34 | 13.04308 | -163.49130 | 35978 ft | 483 kts | 216° |
| 2026-05-07 17:34 | 12.98579 | -163.52713 | 35982 ft | 481 kts | 216° |
| 2026-05-07 17:35 | 12.92860 | -163.56290 | 35969 ft | 482 kts | 215° |
| 2026-05-07 17:35 | 12.87111 | -163.59881 | 35972 ft | 484 kts | 215° |
| 2026-05-07 17:36 | 12.81396 | -163.63450 | 35969 ft | 484 kts | 215° |
| 2026-05-07 17:36 | 12.75643 | -163.67040 | 35971 ft | 484 kts | 215° |
| 2026-05-07 17:37 | 12.69894 | -163.70627 | 35975 ft | 484 kts | 215° |
| 2026-05-07 17:37 | 12.64144 | -163.74212 | 35975 ft | 484 kts | 215° |
| 2026-05-07 17:38 | 12.58378 | -163.77806 | 35974 ft | 487 kts | 214° |
| 2026-05-07 17:38 | 12.52568 | -163.81422 | 35970 ft | 488 kts | 214° |
| 2026-05-07 17:39 | 12.46815 | -163.85005 | 35964 ft | 486 kts | 214° |
| 2026-05-07 17:39 | 12.41039 | -163.88598 | 35956 ft | 485 kts | 214° |
| 2026-05-07 17:40 | 12.35273 | -163.92183 | 35959 ft | 485 kts | 214° |
| 2026-05-07 17:40 | 12.29498 | -163.95773 | 35957 ft | 486 kts | 214° |
| 2026-05-07 17:41 | 12.23711 | -163.99368 | 35960 ft | 488 kts | 213° |
| 2026-05-07 17:41 | 12.17906 | -164.02971 | 35973 ft | 487 kts | 213° |
| 2026-05-07 17:42 | 12.12133 | -164.06554 | 35954 ft | 485 kts | 213° |
| 2026-05-07 17:42 | 12.06370 | -164.10128 | 35963 ft | 485 kts | 213° |
| 2026-05-07 17:43 | 12.00596 | -164.13708 | 35956 ft | 485 kts | 213° |
| 2026-05-07 17:43 | 11.94816 | -164.17289 | 35961 ft | 486 kts | 213° |
| 2026-05-07 17:44 | 11.89068 | -164.20848 | 35971 ft | 487 kts | 213° |
| 2026-05-07 17:44 | 11.83277 | -164.24433 | 35970 ft | 487 kts | 213° |
| 2026-05-07 17:45 | 11.77485 | -164.28016 | 35968 ft | 487 kts | 213° |
| 2026-05-07 17:45 | 11.71692 | -164.31598 | 35968 ft | 487 kts | 213° |
| 2026-05-07 17:46 | 11.65901 | -164.35177 | 35969 ft | 487 kts | 213° |
| 2026-05-07 17:46 | 11.60110 | -164.38755 | 35961 ft | 487 kts | 213° |
| 2026-05-07 17:47 | 11.54293 | -164.42346 | 35961 ft | 489 kts | 213° |
| 2026-05-07 17:47 | 11.48476 | -164.45936 | 35965 ft | 489 kts | 213° |
| 2026-05-07 17:48 | 11.42701 | -164.49498 | 35963 ft | 489 kts | 213° |
| 2026-05-07 17:48 | 11.36889 | -164.53081 | 35962 ft | 488 kts | 213° |
| 2026-05-07 17:49 | 11.31073 | -164.56666 | 35964 ft | 488 kts | 213° |
| 2026-05-07 17:49 | 11.25261 | -164.60245 | 35962 ft | 488 kts | 213° |
| 2026-05-07 17:50 | 11.19448 | -164.63824 | 35960 ft | 488 kts | 213° |
| 2026-05-07 17:50 | 11.13636 | -164.67400 | 35961 ft | 488 kts | 213° |
| 2026-05-07 17:51 | 11.07826 | -164.70974 | 35960 ft | 488 kts | 213° |
| 2026-05-07 17:51 | 11.02019 | -164.74544 | 35960 ft | 488 kts | 213° |
| 2026-05-07 17:52 | 10.96206 | -164.78116 | 35962 ft | 488 kts | 213° |
| 2026-05-07 17:52 | 10.90384 | -164.81691 | 35955 ft | 488 kts | 213° |
| 2026-05-07 17:53 | 10.84602 | -164.85241 | 35953 ft | 489 kts | 212° |
| 2026-05-07 17:53 | 10.78779 | -164.88814 | 35954 ft | 489 kts | 213° |
| 2026-05-07 17:54 | 10.72955 | -164.92387 | 35960 ft | 488 kts | 213° |
| 2026-05-07 17:54 | 10.67139 | -164.95952 | 35960 ft | 488 kts | 213° |
| 2026-05-07 17:55 | 10.61314 | -164.99522 | 35960 ft | 488 kts | 212° |
| 2026-05-07 17:55 | 10.55498 | -165.03085 | 35955 ft | 490 kts | 212° |
| 2026-05-07 17:56 | 10.49629 | -165.06677 | 35956 ft | 493 kts | 212° |
| 2026-05-07 17:56 | 10.43798 | -165.10246 | 35953 ft | 491 kts | 212° |
| 2026-05-07 17:57 | 10.38893 | -165.13247 | 35957 ft | 490 kts | 212° |
| 2026-05-07 17:57 | 10.32091 | -165.17406 | 35956 ft | 491 kts | 212° |
| 2026-05-07 17:58 | 10.26226 | -165.20992 | 35954 ft | 491 kts | 213° |
| 2026-05-07 17:58 | 10.20439 | -165.24693 | 35947 ft | 493 kts | 213° |
| 2026-05-07 17:59 | 10.14617 | -165.28376 | 35955 ft | 497 kts | 212° |
| 2026-05-07 17:59 | 10.08764 | -165.32087 | 35955 ft | 495 kts | 213° |
| 2026-05-07 18:00 | 10.02926 | -165.35790 | 35951 ft | 495 kts | 213° |
| 2026-05-07 18:00 | 9.97089 | -165.39484 | 35950 ft | 495 kts | 212° |
| 2026-05-07 18:01 | 9.91252 | -165.43183 | 35953 ft | 494 kts | 212° |
| 2026-05-07 18:01 | 9.85410 | -165.46878 | 35952 ft | 495 kts | 212° |
| 2026-05-07 18:02 | 9.77617 | -165.51809 | 35949 ft | 496 kts | 212° |
| 2026-05-07 18:03 | 9.71759 | -165.55513 | 35954 ft | 496 kts | 212° |
| 2026-05-07 18:03 | 9.65904 | -165.59214 | 35952 ft | 496 kts | 212° |
| 2026-05-07 18:04 | 9.60042 | -165.62917 | 35946 ft | 496 kts | 212° |
| 2026-05-07 18:04 | 9.54183 | -165.66617 | 35946 ft | 496 kts | 212° |
| 2026-05-07 18:05 | 9.48312 | -165.70324 | 35944 ft | 499 kts | 212° |
| 2026-05-07 18:05 | 9.42421 | -165.74041 | 35944 ft | 499 kts | 212° |
| 2026-05-07 18:06 | 9.36532 | -165.77755 | 35944 ft | 499 kts | 212° |
| 2026-05-07 18:06 | 9.30643 | -165.81468 | 35949 ft | 498 kts | 212° |
| 2026-05-07 18:07 | 9.24805 | -165.85148 | 35945 ft | 497 kts | 212° |
| 2026-05-07 18:07 | 9.18935 | -165.88846 | 35943 ft | 496 kts | 212° |
| 2026-05-07 18:08 | 9.13061 | -165.92545 | 35942 ft | 499 kts | 212° |
| 2026-05-07 18:08 | 9.07166 | -165.96256 | 35941 ft | 499 kts | 212° |
| 2026-05-07 18:09 | 9.01262 | -165.99971 | 35940 ft | 499 kts | 212° |
| 2026-05-07 18:09 | 8.95367 | -166.03679 | 35940 ft | 499 kts | 212° |
| 2026-05-07 18:10 | 8.89463 | -166.07391 | 35942 ft | 499 kts | 212° |
| 2026-05-07 18:10 | 8.83565 | -166.11098 | 35942 ft | 499 kts | 212° |
| 2026-05-07 18:11 | 8.77704 | -166.14780 | 35939 ft | 500 kts | 212° |
| 2026-05-07 18:11 | 8.71786 | -166.18497 | 35940 ft | 500 kts | 212° |
| 2026-05-07 18:12 | 8.65881 | -166.22204 | 35936 ft | 500 kts | 212° |
| 2026-05-07 18:12 | 8.59969 | -166.25914 | 35935 ft | 500 kts | 212° |
| 2026-05-07 18:13 | 8.54061 | -166.29620 | 35936 ft | 500 kts | 212° |
| 2026-05-07 18:13 | 8.48146 | -166.33330 | 35936 ft | 500 kts | 212° |
| 2026-05-07 18:14 | 8.42238 | -166.37033 | 35934 ft | 500 kts | 212° |
| 2026-05-07 18:14 | 8.36319 | -166.40743 | 35935 ft | 500 kts | 212° |
| 2026-05-07 18:15 | 8.30409 | -166.44445 | 35931 ft | 500 kts | 212° |
| 2026-05-07 18:15 | 8.24527 | -166.48128 | 35932 ft | 500 kts | 212° |
| 2026-05-07 18:16 | 8.18604 | -166.51835 | 35941 ft | 500 kts | 212° |
| 2026-05-07 18:16 | 8.12692 | -166.55535 | 35941 ft | 500 kts | 212° |
| 2026-05-07 18:17 | 8.06771 | -166.59238 | 35935 ft | 501 kts | 212° |
| 2026-05-07 18:17 | 8.00850 | -166.62941 | 35935 ft | 500 kts | 212° |
| 2026-05-07 18:18 | 7.94928 | -166.66642 | 35933 ft | 500 kts | 212° |
| 2026-05-07 18:18 | 7.89005 | -166.70344 | 35933 ft | 500 kts | 212° |
| 2026-05-07 18:19 | 7.83076 | -166.74047 | 35929 ft | 501 kts | 212° |
| 2026-05-07 18:19 | 7.77195 | -166.77720 | 35929 ft | 500 kts | 212° |
| 2026-05-07 18:20 | 7.71266 | -166.81421 | 35927 ft | 501 kts | 212° |
| 2026-05-07 18:20 | 7.65340 | -166.85119 | 35928 ft | 501 kts | 212° |
| 2026-05-07 18:21 | 7.59413 | -166.88816 | 35927 ft | 501 kts | 212° |
| 2026-05-07 18:21 | 7.53490 | -166.92510 | 35927 ft | 501 kts | 212° |
| 2026-05-07 18:22 | 7.47560 | -166.96207 | 35931 ft | 501 kts | 212° |
| 2026-05-07 18:22 | 7.41635 | -166.99899 | 35931 ft | 501 kts | 212° |
| 2026-05-07 18:23 | 7.35714 | -167.03588 | 35925 ft | 500 kts | 212° |
| 2026-05-07 18:23 | 7.29791 | -167.07277 | 35926 ft | 500 kts | 212° |
| 2026-05-07 18:24 | 7.23911 | -167.10938 | 35922 ft | 500 kts | 212° |
| 2026-05-07 18:24 | 7.17997 | -167.14620 | 35922 ft | 500 kts | 212° |
| 2026-05-07 18:25 | 7.12066 | -167.18310 | 35926 ft | 501 kts | 212° |
| 2026-05-07 18:25 | 7.06142 | -167.21995 | 35923 ft | 500 kts | 212° |
| 2026-05-07 18:26 | 7.00227 | -167.25672 | 35928 ft | 497 kts | 212° |
| 2026-05-07 18:26 | 6.94345 | -167.29330 | 35926 ft | 497 kts | 212° |
| 2026-05-07 18:27 | 6.88469 | -167.32982 | 35926 ft | 497 kts | 211° |
| 2026-05-07 18:27 | 6.82626 | -167.36612 | 35926 ft | 497 kts | 211° |
| 2026-05-07 18:28 | 6.76743 | -167.40266 | 35924 ft | 497 kts | 211° |
| 2026-05-07 18:28 | 6.70860 | -167.43919 | 35925 ft | 497 kts | 211° |
| 2026-05-07 18:29 | 6.64967 | -167.47577 | 35924 ft | 499 kts | 211° |
| 2026-05-07 18:29 | 6.59039 | -167.51256 | 35925 ft | 501 kts | 211° |
| 2026-05-07 18:30 | 6.53113 | -167.54933 | 35925 ft | 500 kts | 211° |
| 2026-05-07 18:30 | 6.47195 | -167.58603 | 35924 ft | 500 kts | 211° |
| 2026-05-07 18:31 | 6.41271 | -167.62276 | 35921 ft | 499 kts | 211° |
| 2026-05-07 18:31 | 6.35397 | -167.65918 | 35924 ft | 499 kts | 211° |
| 2026-05-07 18:32 | 6.29483 | -167.69583 | 35923 ft | 500 kts | 211° |
| 2026-05-07 18:32 | 6.23557 | -167.73254 | 35924 ft | 500 kts | 211° |
| 2026-05-07 18:33 | 6.17627 | -167.76927 | 35927 ft | 500 kts | 211° |
| 2026-05-07 18:33 | 6.11704 | -167.80595 | 35927 ft | 500 kts | 211° |
| 2026-05-07 18:34 | 6.05779 | -167.84263 | 35921 ft | 500 kts | 211° |
| 2026-05-07 18:34 | 5.99856 | -167.87929 | 35921 ft | 500 kts | 211° |
| 2026-05-07 18:35 | 5.93932 | -167.91594 | 35921 ft | 500 kts | 211° |
| 2026-05-07 18:35 | 5.87990 | -167.95269 | 35922 ft | 502 kts | 211° |
| 2026-05-07 18:36 | 5.82033 | -167.98953 | 35925 ft | 503 kts | 211° |
| 2026-05-07 18:36 | 5.76119 | -168.02610 | 35923 ft | 502 kts | 211° |
| 2026-05-07 18:37 | 5.70167 | -168.06289 | 35921 ft | 502 kts | 211° |
| 2026-05-07 18:37 | 5.64212 | -168.09968 | 35922 ft | 503 kts | 211° |
| 2026-05-07 18:38 | 5.58263 | -168.13644 | 35916 ft | 502 kts | 211° |
| 2026-05-07 18:38 | 5.52304 | -168.17325 | 35917 ft | 503 kts | 211° |
| 2026-05-07 18:39 | 5.46342 | -168.21006 | 35919 ft | 503 kts | 211° |
| 2026-05-07 18:39 | 5.40379 | -168.24688 | 35918 ft | 503 kts | 211° |
| 2026-05-07 18:40 | 5.34422 | -168.28364 | 35920 ft | 503 kts | 211° |
| 2026-05-07 18:40 | 5.28497 | -168.32021 | 35921 ft | 503 kts | 211° |
| 2026-05-07 18:41 | 5.22532 | -168.35700 | 35920 ft | 503 kts | 211° |
| 2026-05-07 18:41 | 5.16572 | -168.39377 | 35917 ft | 503 kts | 211° |
| 2026-05-07 18:42 | 5.10612 | -168.43052 | 35919 ft | 503 kts | 211° |
| 2026-05-07 18:42 | 5.04659 | -168.46722 | 35916 ft | 503 kts | 211° |
| 2026-05-07 18:43 | 4.98701 | -168.50395 | 35916 ft | 502 kts | 211° |
| 2026-05-07 18:43 | 4.92738 | -168.54069 | 35917 ft | 502 kts | 211° |
| 2026-05-07 18:44 | 4.86783 | -168.57738 | 35914 ft | 502 kts | 211° |
| 2026-05-07 18:44 | 4.80827 | -168.61408 | 35916 ft | 502 kts | 211° |
| 2026-05-07 18:45 | 4.74871 | -168.65076 | 35914 ft | 502 kts | 211° |
| 2026-05-07 18:45 | 4.68918 | -168.68741 | 35912 ft | 502 kts | 211° |
| 2026-05-07 18:46 | 4.62962 | -168.72407 | 35912 ft | 502 kts | 211° |
| 2026-05-07 18:46 | 4.57040 | -168.76053 | 35914 ft | 503 kts | 211° |
| 2026-05-07 18:47 | 4.51082 | -168.79719 | 35915 ft | 503 kts | 211° |
| 2026-05-07 18:47 | 4.45116 | -168.83389 | 35919 ft | 502 kts | 211° |
| 2026-05-07 18:48 | 4.39163 | -168.87051 | 35917 ft | 502 kts | 211° |
| 2026-05-07 18:48 | 4.33213 | -168.90711 | 35917 ft | 502 kts | 211° |
| 2026-05-07 18:49 | 4.27260 | -168.94371 | 35918 ft | 502 kts | 211° |
| 2026-05-07 18:49 | 4.21308 | -168.98031 | 35919 ft | 502 kts | 211° |
| 2026-05-07 18:50 | 4.16362 | -169.01071 | 35918 ft | 502 kts | 211° |
| 2026-05-07 18:50 | 4.10405 | -169.04732 | 35918 ft | 502 kts | 211° |
| 2026-05-07 18:51 | 4.04444 | -169.08395 | 35918 ft | 502 kts | 210° |
| 2026-05-07 18:51 | 3.98483 | -169.12057 | 35918 ft | 502 kts | 210° |
| 2026-05-07 18:52 | 3.92528 | -169.15715 | 35916 ft | 502 kts | 210° |
| 2026-05-07 18:52 | 3.86577 | -169.19370 | 35915 ft | 501 kts | 210° |
| 2026-05-07 18:53 | 3.80630 | -169.23022 | 35915 ft | 501 kts | 210° |
| 2026-05-07 18:53 | 3.74676 | -169.26677 | 35916 ft | 501 kts | 210° |
| 2026-05-07 18:54 | 3.68758 | -169.30310 | 35915 ft | 502 kts | 210° |
| 2026-05-07 18:54 | 3.62792 | -169.33971 | 35916 ft | 502 kts | 210° |
| 2026-05-07 18:55 | 3.56834 | -169.37627 | 35919 ft | 502 kts | 210° |
| 2026-05-07 18:55 | 3.50875 | -169.41284 | 35920 ft | 503 kts | 210° |
| 2026-05-07 18:56 | 3.44913 | -169.44941 | 35915 ft | 503 kts | 210° |
| 2026-05-07 18:56 | 3.38942 | -169.48604 | 35915 ft | 503 kts | 210° |
| 2026-05-07 18:57 | 3.32976 | -169.52263 | 35920 ft | 502 kts | 210° |
| 2026-05-07 18:57 | 3.27029 | -169.55910 | 35917 ft | 500 kts | 210° |
| 2026-05-07 18:58 | 3.21089 | -169.59552 | 35915 ft | 501 kts | 210° |
| 2026-05-07 18:58 | 3.15172 | -169.63179 | 35913 ft | 502 kts | 210° |
| 2026-05-07 18:59 | 3.09210 | -169.66833 | 35915 ft | 502 kts | 210° |
| 2026-05-07 18:59 | 3.03245 | -169.70489 | 35917 ft | 503 kts | 210° |
| 2026-05-07 19:00 | 2.97275 | -169.74148 | 35914 ft | 502 kts | 210° |
| 2026-05-07 19:00 | 2.91317 | -169.77798 | 35912 ft | 501 kts | 210° |
| 2026-05-07 19:01 | 2.85370 | -169.81441 | 35910 ft | 501 kts | 210° |
| 2026-05-07 19:01 | 2.79429 | -169.85081 | 35910 ft | 500 kts | 210° |
| 2026-05-07 19:02 | 2.73529 | -169.88694 | 35906 ft | 500 kts | 210° |
| 2026-05-07 19:02 | 2.67593 | -169.92330 | 35906 ft | 500 kts | 210° |
| 2026-05-07 19:03 | 2.61661 | -169.95964 | 35913 ft | 500 kts | 211° |
| 2026-05-07 19:03 | 2.55756 | -169.99612 | 35911 ft | 498 kts | 211° |
| 2026-05-07 19:04 | 2.49850 | -170.03245 | 35906 ft | 499 kts | 211° |
| 2026-05-07 19:04 | 2.43932 | -170.06893 | 35909 ft | 500 kts | 211° |
| 2026-05-07 19:05 | 2.37995 | -170.10549 | 35914 ft | 501 kts | 211° |
| 2026-05-07 19:05 | 2.32052 | -170.14209 | 35914 ft | 502 kts | 211° |
| 2026-05-07 19:06 | 2.26151 | -170.17843 | 35911 ft | 501 kts | 211° |
| 2026-05-07 19:06 | 2.17266 | -170.23314 | 35913 ft | 499 kts | 211° |
| 2026-05-07 19:07 | 2.11351 | -170.26954 | 35911 ft | 499 kts | 211° |
| 2026-05-07 19:07 | 2.05435 | -170.30597 | 35910 ft | 499 kts | 211° |
| 2026-05-07 19:08 | 1.99513 | -170.34242 | 35914 ft | 499 kts | 211° |
| 2026-05-07 19:08 | 1.93604 | -170.37878 | 35913 ft | 499 kts | 211° |
| 2026-05-07 19:09 | 1.87722 | -170.41499 | 35914 ft | 499 kts | 211° |
| 2026-05-07 19:09 | 1.81810 | -170.45136 | 35916 ft | 498 kts | 211° |
| 2026-05-07 19:10 | 1.75907 | -170.48769 | 35914 ft | 498 kts | 211° |
| 2026-05-07 19:10 | 1.70008 | -170.52399 | 35914 ft | 498 kts | 211° |
| 2026-05-07 19:11 | 1.64093 | -170.56038 | 35915 ft | 500 kts | 211° |
| 2026-05-07 19:11 | 1.58166 | -170.59684 | 35911 ft | 499 kts | 211° |
| 2026-05-07 19:12 | 1.52248 | -170.63325 | 35908 ft | 499 kts | 211° |
| 2026-05-07 19:12 | 1.46336 | -170.66960 | 35909 ft | 498 kts | 211° |
| 2026-05-07 19:13 | 1.40437 | -170.70589 | 35909 ft | 498 kts | 211° |
| 2026-05-07 19:13 | 1.34580 | -170.74191 | 35910 ft | 498 kts | 211° |
| 2026-05-07 19:14 | 1.28679 | -170.77821 | 35909 ft | 498 kts | 211° |
| 2026-05-07 19:14 | 1.22776 | -170.81451 | 35909 ft | 498 kts | 211° |
| 2026-05-07 19:15 | 1.16875 | -170.85080 | 35911 ft | 498 kts | 211° |
| 2026-05-07 19:15 | 1.10977 | -170.88706 | 35910 ft | 498 kts | 212° |
| 2026-05-07 19:16 | 1.05071 | -170.92338 | 35914 ft | 499 kts | 212° |
| 2026-05-07 19:16 | 0.99147 | -170.95981 | 35915 ft | 500 kts | 212° |
| 2026-05-07 19:17 | 0.93269 | -170.99594 | 35914 ft | 500 kts | 212° |
| 2026-05-07 19:17 | 0.87354 | -171.03231 | 35913 ft | 499 kts | 212° |
| 2026-05-07 19:18 | 0.81434 | -171.06870 | 35913 ft | 499 kts | 212° |
| 2026-05-07 19:18 | 0.75517 | -171.10508 | 35913 ft | 499 kts | 212° |
| 2026-05-07 19:19 | 0.69611 | -171.14139 | 35915 ft | 498 kts | 212° |
| 2026-05-07 19:19 | 0.63712 | -171.17765 | 35914 ft | 498 kts | 212° |
| 2026-05-07 19:20 | 0.57804 | -171.21396 | 35913 ft | 498 kts | 212° |
| 2026-05-07 19:20 | 0.54843 | -171.23217 | 35777 ft | 500 kts | 212° |
| 2026-05-07 19:20 | 0.51887 | -171.25033 | 35750 ft | 497 kts | 212° |
| 2026-05-07 19:21 | 0.46002 | -171.28650 | 35792 ft | 496 kts | 212° |
| 2026-05-07 19:21 | 0.40154 | -171.32246 | 35895 ft | 498 kts | 212° |
| 2026-05-07 19:22 | 0.34237 | -171.35882 | 35896 ft | 499 kts | 212° |
| 2026-05-07 19:22 | 0.28326 | -171.39515 | 35903 ft | 498 kts | 212° |
| 2026-05-07 19:23 | 0.22424 | -171.43143 | 35903 ft | 498 kts | 213° |
| 2026-05-07 19:23 | 0.16521 | -171.46771 | 35901 ft | 498 kts | 212° |
| 2026-05-07 19:24 | 0.10614 | -171.50401 | 35904 ft | 498 kts | 212° |
| 2026-05-07 19:24 | 0.04712 | -171.54029 | 35899 ft | 498 kts | 212° |
| 2026-05-07 19:25 | -0.01151 | -171.57632 | 35901 ft | 498 kts | 212° |
| 2026-05-07 19:25 | -0.07089 | -171.61282 | 35899 ft | 498 kts | 213° |
| 2026-05-07 19:26 | -0.12943 | -171.64880 | 36053 ft | 497 kts | 212° |
| 2026-05-07 19:26 | -0.18835 | -171.68502 | 35976 ft | 494 kts | 212° |
| 2026-05-07 19:27 | -0.24655 | -171.72079 | 35924 ft | 491 kts | 212° |
| 2026-05-07 19:27 | -0.30521 | -171.75684 | 35917 ft | 498 kts | 212° |
| 2026-05-07 19:28 | -0.36415 | -171.79307 | 35914 ft | 497 kts | 212° |
| 2026-05-07 19:28 | -0.42305 | -171.82927 | 35911 ft | 496 kts | 212° |
| 2026-05-07 19:29 | -0.48186 | -171.86543 | 35918 ft | 496 kts | 212° |
| 2026-05-07 19:29 | -0.54071 | -171.90160 | 35913 ft | 497 kts | 213° |
| 2026-05-07 19:30 | -0.59962 | -171.93780 | 35915 ft | 496 kts | 213° |
| 2026-05-07 19:30 | -0.65845 | -171.97397 | 35916 ft | 496 kts | 212° |
| 2026-05-07 19:31 | -0.71729 | -172.01015 | 35914 ft | 496 kts | 212° |
| 2026-05-07 19:31 | -0.77581 | -172.04611 | 35912 ft | 497 kts | 212° |
| 2026-05-07 19:32 | -0.83473 | -172.08233 | 35920 ft | 498 kts | 212° |
| 2026-05-07 19:32 | -0.89361 | -172.11853 | 35915 ft | 497 kts | 213° |
| 2026-05-07 19:33 | -0.95250 | -172.15474 | 35916 ft | 497 kts | 212° |
| 2026-05-07 19:33 | -1.01158 | -172.19107 | 35928 ft | 502 kts | 212° |
| 2026-05-07 19:34 | -1.04132 | -172.20935 | 36104 ft | 502 kts | 212° |
| 2026-05-07 19:34 | -1.07111 | -172.22767 | 36315 ft | 503 kts | 212° |
| 2026-05-07 19:34 | -1.10084 | -172.24595 | 36601 ft | 501 kts | 212° |
| 2026-05-07 19:34 | -1.13060 | -172.26424 | 36809 ft | 501 kts | 212° |
| 2026-05-07 19:35 | -1.16028 | -172.28250 | 37087 ft | 500 kts | 213° |
| 2026-05-07 19:35 | -1.18987 | -172.30069 | 37350 ft | 499 kts | 212° |
| 2026-05-07 19:35 | -1.21942 | -172.31887 | 37537 ft | 499 kts | 213° |
| 2026-05-07 19:35 | -1.24901 | -172.33706 | 37780 ft | 499 kts | 212° |
| 2026-05-07 19:36 | -1.27818 | -172.35500 | 37908 ft | 500 kts | 213° |
| 2026-05-07 19:36 | -1.30790 | -172.37328 | 37896 ft | 502 kts | 213° |
| 2026-05-07 19:36 | -1.36712 | -172.40969 | 37898 ft | 496 kts | 213° |
| 2026-05-07 19:37 | -1.42579 | -172.44578 | 37902 ft | 493 kts | 212° |
| 2026-05-07 19:37 | -1.48435 | -172.48180 | 37899 ft | 494 kts | 212° |
| 2026-05-07 19:38 | -1.53300 | -172.51173 | 37902 ft | 494 kts | 213° |
| 2026-05-07 19:38 | -1.59150 | -172.54771 | 37901 ft | 494 kts | 213° |
| 2026-05-07 19:39 | -1.64997 | -172.58369 | 37901 ft | 494 kts | 212° |
| 2026-05-07 19:39 | -1.70853 | -172.61972 | 37901 ft | 494 kts | 212° |
| 2026-05-07 19:40 | -1.76712 | -172.65577 | 37901 ft | 494 kts | 212° |
| 2026-05-07 19:40 | -1.82562 | -172.69176 | 37905 ft | 494 kts | 213° |
| 2026-05-07 19:41 | -1.88415 | -172.72779 | 37906 ft | 494 kts | 212° |
| 2026-05-07 19:41 | -1.94279 | -172.76387 | 37906 ft | 496 kts | 213° |
| 2026-05-07 19:42 | -2.00159 | -172.80005 | 37909 ft | 493 kts | 213° |
| 2026-05-07 19:42 | -2.05940 | -172.83564 | 37904 ft | 490 kts | 213° |
| 2026-05-07 19:43 | -2.11758 | -172.87147 | 37904 ft | 491 kts | 213° |
| 2026-05-07 19:43 | -2.17581 | -172.90732 | 37906 ft | 492 kts | 213° |
| 2026-05-07 19:44 | -2.23405 | -172.94317 | 37910 ft | 492 kts | 213° |
| 2026-05-07 19:44 | -2.29228 | -172.97902 | 37906 ft | 491 kts | 212° |
| 2026-05-07 19:45 | -2.35046 | -173.01485 | 37903 ft | 491 kts | 213° |
| 2026-05-07 19:45 | -2.40866 | -173.05070 | 37904 ft | 491 kts | 213° |
| 2026-05-07 19:46 | -2.46690 | -173.08657 | 37907 ft | 491 kts | 212° |
| 2026-05-07 19:46 | -2.52516 | -173.12246 | 37908 ft | 492 kts | 212° |
| 2026-05-07 19:47 | -2.58339 | -173.15833 | 37908 ft | 492 kts | 212° |
| 2026-05-07 19:47 | -2.64088 | -173.19375 | 37908 ft | 485 kts | 213° |
| 2026-05-07 19:48 | -2.69845 | -173.22923 | 37902 ft | 487 kts | 213° |
| 2026-05-07 19:48 | -2.75622 | -173.26483 | 37906 ft | 488 kts | 213° |
| 2026-05-07 19:49 | -2.81406 | -173.30048 | 37910 ft | 488 kts | 213° |
| 2026-05-07 19:49 | -2.87192 | -173.33615 | 37914 ft | 488 kts | 213° |
| 2026-05-07 19:50 | -2.92980 | -173.37183 | 37916 ft | 488 kts | 213° |
| 2026-05-07 19:50 | -2.98764 | -173.40750 | 37916 ft | 488 kts | 213° |
| 2026-05-07 19:51 | -3.04545 | -173.44315 | 37914 ft | 487 kts | 213° |
| 2026-05-07 19:51 | -3.10280 | -173.47851 | 37911 ft | 482 kts | 213° |
| 2026-05-07 19:52 | -3.15989 | -173.51373 | 37908 ft | 482 kts | 213° |
| 2026-05-07 19:52 | -3.21715 | -173.54905 | 37908 ft | 485 kts | 213° |
| 2026-05-07 19:53 | -3.27498 | -173.58473 | 37911 ft | 490 kts | 212° |
| 2026-05-07 19:53 | -3.33260 | -173.62027 | 37916 ft | 489 kts | 213° |
| 2026-05-07 19:54 | -3.39048 | -173.65600 | 37913 ft | 488 kts | 212° |
| 2026-05-07 19:54 | -3.44830 | -173.69169 | 37914 ft | 488 kts | 212° |
| 2026-05-07 19:55 | -3.50621 | -173.72744 | 37917 ft | 488 kts | 213° |
| 2026-05-07 19:55 | -3.56395 | -173.76309 | 37917 ft | 488 kts | 212° |
| 2026-05-07 19:56 | -3.62141 | -173.79858 | 37917 ft | 488 kts | 212° |
| 2026-05-07 19:56 | -3.67923 | -173.83428 | 37915 ft | 488 kts | 213° |
| 2026-05-07 19:57 | -3.73704 | -173.86999 | 37908 ft | 488 kts | 212° |
| 2026-05-07 19:57 | -3.79480 | -173.90567 | 37919 ft | 487 kts | 212° |
| 2026-05-07 19:58 | -3.85278 | -173.94150 | 37925 ft | 492 kts | 213° |
| 2026-05-07 19:58 | -3.91111 | -173.97754 | 37928 ft | 493 kts | 213° |
| 2026-05-07 19:59 | -3.96941 | -174.01358 | 37924 ft | 492 kts | 213° |
| 2026-05-07 19:59 | -4.02731 | -174.04937 | 37926 ft | 492 kts | 213° |
| 2026-05-07 20:00 | -4.08558 | -174.08540 | 37926 ft | 492 kts | 213° |
| 2026-05-07 20:00 | -4.14391 | -174.12148 | 37925 ft | 492 kts | 212° |
| 2026-05-07 20:01 | -4.20215 | -174.15749 | 37928 ft | 490 kts | 213° |
| 2026-05-07 20:01 | -4.26005 | -174.19331 | 37927 ft | 489 kts | 213° |
| 2026-05-07 20:02 | -4.31793 | -174.22913 | 37927 ft | 489 kts | 213° |
| 2026-05-07 20:02 | -4.37584 | -174.26496 | 37926 ft | 489 kts | 213° |
| 2026-05-07 20:03 | -4.43374 | -174.30079 | 37920 ft | 491 kts | 213° |
| 2026-05-07 20:03 | -4.49221 | -174.33701 | 37927 ft | 496 kts | 213° |
| 2026-05-07 20:04 | -4.55042 | -174.37304 | 37927 ft | 495 kts | 213° |
| 2026-05-07 20:04 | -4.60868 | -174.40913 | 37923 ft | 490 kts | 213° |
| 2026-05-07 20:05 | -4.66673 | -174.44508 | 37924 ft | 490 kts | 213° |
| 2026-05-07 20:05 | -4.72486 | -174.48109 | 37925 ft | 492 kts | 213° |
| 2026-05-07 20:06 | -4.78313 | -174.51721 | 37922 ft | 492 kts | 213° |
| 2026-05-07 20:06 | -4.84132 | -174.55327 | 37922 ft | 491 kts | 213° |
| 2026-05-07 20:07 | -4.89943 | -174.58930 | 37929 ft | 490 kts | 213° |
| 2026-05-07 20:07 | -4.95747 | -174.62529 | 37932 ft | 490 kts | 213° |
| 2026-05-07 20:08 | -5.01549 | -174.66122 | 37925 ft | 490 kts | 213° |
| 2026-05-07 20:08 | -5.07428 | -174.69625 | 37930 ft | 495 kts | 212° |
| 2026-05-07 20:09 | -5.13327 | -174.73190 | 37934 ft | 495 kts | 213° |
| 2026-05-07 20:10 | -5.22148 | -174.78492 | 37928 ft | 494 kts | 212° |
| 2026-05-07 20:10 | -5.28032 | -174.82043 | 37927 ft | 494 kts | 212° |
| 2026-05-07 20:11 | -5.33921 | -174.85587 | 37930 ft | 492 kts | 212° |
| 2026-05-07 20:11 | -5.39789 | -174.89124 | 37932 ft | 492 kts | 212° |
| 2026-05-07 20:12 | -5.45662 | -174.92662 | 37929 ft | 492 kts | 212° |
| 2026-05-07 20:12 | -5.51534 | -174.96203 | 37929 ft | 493 kts | 212° |
| 2026-05-07 20:13 | -5.57423 | -174.99753 | 37931 ft | 493 kts | 212° |
| 2026-05-07 20:13 | -5.63306 | -175.03300 | 37932 ft | 493 kts | 212° |
| 2026-05-07 20:14 | -5.69200 | -175.06856 | 37930 ft | 497 kts | 212° |
| 2026-05-07 20:14 | -5.75101 | -175.10416 | 37938 ft | 497 kts | 212° |
| 2026-05-07 20:15 | -5.81035 | -175.13997 | 37933 ft | 497 kts | 212° |
| 2026-05-07 20:15 | -5.86959 | -175.17573 | 37933 ft | 497 kts | 212° |
| 2026-05-07 20:16 | -5.92884 | -175.21151 | 37939 ft | 497 kts | 212° |
| 2026-05-07 20:16 | -5.98812 | -175.24731 | 37939 ft | 497 kts | 212° |
| 2026-05-07 20:17 | -6.04733 | -175.28307 | 37933 ft | 497 kts | 212° |
| 2026-05-07 20:17 | -6.10609 | -175.31858 | 37934 ft | 494 kts | 213° |
| 2026-05-07 20:18 | -6.16484 | -175.35409 | 37933 ft | 492 kts | 213° |
| 2026-05-07 20:18 | -6.22356 | -175.38959 | 37931 ft | 492 kts | 213° |
| 2026-05-07 20:19 | -6.28227 | -175.42509 | 37934 ft | 493 kts | 213° |
| 2026-05-07 20:19 | -6.34124 | -175.46077 | 37937 ft | 497 kts | 212° |
| 2026-05-07 20:20 | -6.40056 | -175.49666 | 37937 ft | 498 kts | 212° |
| 2026-05-07 20:20 | -6.45986 | -175.53255 | 37938 ft | 497 kts | 213° |
| 2026-05-07 20:21 | -6.51876 | -175.56820 | 37930 ft | 492 kts | 213° |
| 2026-05-07 20:21 | -6.57749 | -175.60377 | 37929 ft | 493 kts | 213° |
| 2026-05-07 20:22 | -6.63628 | -175.63938 | 37936 ft | 494 kts | 213° |
| 2026-05-07 20:22 | -6.69480 | -175.67484 | 37938 ft | 494 kts | 213° |
| 2026-05-07 20:23 | -6.75379 | -175.71059 | 37936 ft | 495 kts | 213° |
| 2026-05-07 20:23 | -6.81273 | -175.74632 | 37939 ft | 495 kts | 213° |
| 2026-05-07 20:24 | -6.87162 | -175.78203 | 37937 ft | 492 kts | 213° |
| 2026-05-07 20:24 | -6.93020 | -175.81757 | 37932 ft | 490 kts | 213° |
| 2026-05-07 20:25 | -6.98868 | -175.85305 | 37936 ft | 490 kts | 213° |
| 2026-05-07 20:25 | -7.03734 | -175.88259 | 37936 ft | 491 kts | 213° |
| 2026-05-07 20:26 | -7.09583 | -175.91809 | 37934 ft | 491 kts | 213° |
| 2026-05-07 20:26 | -7.16388 | -175.95942 | 37934 ft | 491 kts | 213° |
| 2026-05-07 20:27 | -7.22240 | -175.99498 | 37932 ft | 492 kts | 213° |
| 2026-05-07 20:27 | -7.27153 | -176.02483 | 37933 ft | 492 kts | 213° |
| 2026-05-07 20:28 | -7.32976 | -176.06023 | 37935 ft | 492 kts | 213° |
| 2026-05-07 20:28 | -7.38843 | -176.09590 | 37936 ft | 492 kts | 213° |
| 2026-05-07 20:29 | -7.44715 | -176.13161 | 37937 ft | 493 kts | 213° |
| 2026-05-07 20:29 | -7.50587 | -176.16734 | 37938 ft | 493 kts | 213° |
| 2026-05-07 20:30 | -7.56468 | -176.20313 | 37941 ft | 494 kts | 213° |
| 2026-05-07 20:30 | -7.62348 | -176.23892 | 37941 ft | 492 kts | 213° |
| 2026-05-07 20:31 | -7.68157 | -176.27431 | 37941 ft | 490 kts | 213° |
| 2026-05-07 20:31 | -7.73999 | -176.30989 | 37944 ft | 491 kts | 213° |
| 2026-05-07 20:32 | -7.79844 | -176.34552 | 37938 ft | 491 kts | 213° |
| 2026-05-07 20:32 | -7.85697 | -176.38119 | 37940 ft | 492 kts | 213° |
| 2026-05-07 20:33 | -7.91557 | -176.41693 | 37943 ft | 492 kts | 213° |
| 2026-05-07 20:33 | -7.97424 | -176.45271 | 37949 ft | 492 kts | 213° |
| 2026-05-07 20:34 | -8.03250 | -176.48827 | 37944 ft | 489 kts | 213° |
| 2026-05-07 20:34 | -8.09063 | -176.52375 | 37945 ft | 488 kts | 213° |
| 2026-05-07 20:35 | -8.14893 | -176.55935 | 37950 ft | 489 kts | 213° |
| 2026-05-07 20:35 | -8.20688 | -176.59475 | 37948 ft | 490 kts | 213° |
| 2026-05-07 20:36 | -8.26521 | -176.63040 | 37947 ft | 490 kts | 213° |
| 2026-05-07 20:36 | -8.32355 | -176.66606 | 37949 ft | 490 kts | 213° |
| 2026-05-07 20:37 | -8.38179 | -176.70167 | 37949 ft | 489 kts | 213° |
| 2026-05-07 20:37 | -8.43986 | -176.73719 | 37946 ft | 487 kts | 213° |
| 2026-05-07 20:38 | -8.49747 | -176.77244 | 37941 ft | 487 kts | 213° |
| 2026-05-07 20:38 | -8.55551 | -176.80797 | 37945 ft | 488 kts | 213° |
| 2026-05-07 20:39 | -8.61369 | -176.84360 | 37951 ft | 490 kts | 213° |
| 2026-05-07 20:39 | -8.67210 | -176.87938 | 37955 ft | 491 kts | 213° |
| 2026-05-07 20:40 | -8.73039 | -176.91510 | 37945 ft | 488 kts | 214° |
| 2026-05-07 20:40 | -8.78822 | -176.95056 | 37941 ft | 485 kts | 214° |
| 2026-05-07 20:41 | -8.84584 | -176.98589 | 37940 ft | 484 kts | 214° |
| 2026-05-07 20:41 | -8.90350 | -177.02126 | 37941 ft | 485 kts | 214° |
| 2026-05-07 20:42 | -8.96132 | -177.05675 | 37942 ft | 486 kts | 214° |
| 2026-05-07 20:42 | -9.01924 | -177.09231 | 37946 ft | 487 kts | 214° |
| 2026-05-07 20:43 | -9.07730 | -177.12796 | 37951 ft | 487 kts | 214° |
| 2026-05-07 20:43 | -9.13441 | -177.16304 | 37944 ft | 478 kts | 214° |
| 2026-05-07 20:44 | -9.19128 | -177.19802 | 37933 ft | 479 kts | 214° |
| 2026-05-07 20:44 | -9.24836 | -177.23310 | 37936 ft | 480 kts | 214° |
| 2026-05-07 20:45 | -9.30557 | -177.26830 | 37945 ft | 481 kts | 214° |
| 2026-05-07 20:45 | -9.36281 | -177.30352 | 37948 ft | 482 kts | 214° |
| 2026-05-07 20:46 | -9.41973 | -177.33856 | 37943 ft | 481 kts | 214° |
| 2026-05-07 20:46 | -9.47682 | -177.37371 | 37947 ft | 478 kts | 214° |
| 2026-05-07 20:47 | -9.53345 | -177.40861 | 37943 ft | 476 kts | 214° |
| 2026-05-07 20:47 | -9.59012 | -177.44354 | 37943 ft | 477 kts | 214° |
| 2026-05-07 20:48 | -9.64687 | -177.47852 | 37945 ft | 478 kts | 214° |
| 2026-05-07 20:48 | -9.70375 | -177.51361 | 37948 ft | 478 kts | 214° |
| 2026-05-07 20:49 | -9.76064 | -177.54871 | 37950 ft | 479 kts | 214° |
| 2026-05-07 20:49 | -9.81759 | -177.58387 | 37952 ft | 479 kts | 214° |
| 2026-05-07 20:50 | -9.87423 | -177.61883 | 37942 ft | 473 kts | 214° |
| 2026-05-07 20:50 | -9.93039 | -177.65355 | 37938 ft | 473 kts | 214° |
| 2026-05-07 20:51 | -9.98671 | -177.68835 | 37941 ft | 474 kts | 214° |
| 2026-05-07 20:51 | -10.04305 | -177.72321 | 37942 ft | 475 kts | 214° |
| 2026-05-07 20:52 | -10.09904 | -177.75788 | 37947 ft | 475 kts | 214° |
| 2026-05-07 20:52 | -10.15540 | -177.79279 | 37945 ft | 475 kts | 214° |
| 2026-05-07 20:53 | -10.21178 | -177.82773 | 37954 ft | 475 kts | 214° |
| 2026-05-07 20:53 | -10.26822 | -177.86271 | 37957 ft | 476 kts | 214° |
| 2026-05-07 20:54 | -10.32477 | -177.89779 | 37955 ft | 475 kts | 214° |
| 2026-05-07 20:54 | -10.38115 | -177.93277 | 37952 ft | 474 kts | 214° |
| 2026-05-07 20:55 | -10.43730 | -177.96762 | 37950 ft | 472 kts | 214° |
| 2026-05-07 20:55 | -10.49301 | -178.00222 | 37944 ft | 472 kts | 214° |
| 2026-05-07 20:56 | -10.54920 | -178.03713 | 37944 ft | 474 kts | 214° |
| 2026-05-07 20:56 | -10.60559 | -178.07217 | 37956 ft | 475 kts | 214° |
| 2026-05-07 20:57 | -10.66210 | -178.10732 | 37959 ft | 476 kts | 214° |
| 2026-05-07 20:57 | -10.71844 | -178.14235 | 37958 ft | 474 kts | 214° |
| 2026-05-07 20:58 | -10.77460 | -178.17731 | 37945 ft | 473 kts | 214° |
| 2026-05-07 20:58 | -10.83036 | -178.21203 | 37947 ft | 473 kts | 214° |
| 2026-05-07 20:59 | -10.88656 | -178.24704 | 37950 ft | 474 kts | 214° |
| 2026-05-07 20:59 | -10.94300 | -178.28220 | 37954 ft | 475 kts | 214° |
| 2026-05-07 21:00 | -10.99947 | -178.31741 | 37959 ft | 476 kts | 214° |
| 2026-05-07 21:00 | -11.05588 | -178.35259 | 37960 ft | 475 kts | 214° |
| 2026-05-07 21:01 | -11.11182 | -178.38750 | 37958 ft | 474 kts | 214° |
| 2026-05-07 21:01 | -11.16798 | -178.42256 | 37953 ft | 473 kts | 214° |
| 2026-05-07 21:02 | -11.22418 | -178.45767 | 37951 ft | 473 kts | 214° |
| 2026-05-07 21:02 | -11.28030 | -178.49274 | 37948 ft | 473 kts | 213° |
| 2026-05-07 21:03 | -11.33641 | -178.52782 | 37955 ft | 473 kts | 213° |
| 2026-05-07 21:03 | -11.39259 | -178.56296 | 37954 ft | 474 kts | 213° |
| 2026-05-07 21:04 | -11.44879 | -178.59812 | 37960 ft | 474 kts | 213° |
| 2026-05-07 21:04 | -11.50502 | -178.63333 | 37957 ft | 474 kts | 213° |
| 2026-05-07 21:05 | -11.56129 | -178.66857 | 37955 ft | 475 kts | 213° |
| 2026-05-07 21:05 | -11.61721 | -178.70362 | 37959 ft | 474 kts | 213° |
| 2026-05-07 21:06 | -11.67345 | -178.73887 | 37957 ft | 474 kts | 213° |
| 2026-05-07 21:06 | -11.72977 | -178.77420 | 37958 ft | 476 kts | 213° |
| 2026-05-07 21:07 | -11.78619 | -178.80960 | 37961 ft | 477 kts | 213° |
| 2026-05-07 21:07 | -11.84264 | -178.84505 | 37962 ft | 476 kts | 213° |
| 2026-05-07 21:08 | -11.89886 | -178.88036 | 37961 ft | 473 kts | 213° |
| 2026-05-07 21:08 | -11.95482 | -178.91554 | 37958 ft | 472 kts | 213° |
| 2026-05-07 21:09 | -12.01074 | -178.95070 | 37954 ft | 472 kts | 213° |
| 2026-05-07 21:09 | -12.06657 | -178.98582 | 37961 ft | 471 kts | 213° |
| 2026-05-07 21:10 | -12.12224 | -179.02086 | 37963 ft | 469 kts | 213° |
| 2026-05-07 21:10 | -12.17789 | -179.05590 | 37962 ft | 469 kts | 213° |
| 2026-05-07 21:11 | -12.23343 | -179.09089 | 37961 ft | 469 kts | 213° |
| 2026-05-07 21:11 | -12.31663 | -179.14335 | 37964 ft | 471 kts | 213° |
| 2026-05-07 21:12 | -12.37255 | -179.17862 | 37962 ft | 473 kts | 213° |
| 2026-05-07 21:12 | -12.42849 | -179.21393 | 37958 ft | 471 kts | 214° |
| 2026-05-07 21:13 | -12.48407 | -179.24903 | 37955 ft | 469 kts | 213° |
| 2026-05-07 21:13 | -12.53949 | -179.28404 | 37954 ft | 468 kts | 213° |
| 2026-05-07 21:14 | -12.59497 | -179.31912 | 37959 ft | 469 kts | 213° |
| 2026-05-07 21:14 | -12.65058 | -179.35429 | 37956 ft | 470 kts | 213° |
| 2026-05-07 21:15 | -12.70626 | -179.38951 | 37962 ft | 470 kts | 213° |
| 2026-05-07 21:15 | -12.76148 | -179.42447 | 37960 ft | 469 kts | 213° |
| 2026-05-07 21:16 | -12.81691 | -179.45958 | 37962 ft | 468 kts | 214° |
| 2026-05-07 21:16 | -12.87218 | -179.49461 | 37961 ft | 467 kts | 214° |
| 2026-05-07 21:17 | -12.91811 | -179.52374 | 37963 ft | 467 kts | 214° |
| 2026-05-07 21:17 | -12.97352 | -179.55889 | 37964 ft | 469 kts | 214° |
| 2026-05-07 21:18 | -13.02905 | -179.59413 | 37963 ft | 470 kts | 214° |
| 2026-05-07 21:18 | -13.08470 | -179.62948 | 37970 ft | 470 kts | 214° |
| 2026-05-07 21:19 | -13.14025 | -179.66477 | 37975 ft | 469 kts | 214° |
| 2026-05-07 21:19 | -13.19523 | -179.69972 | 37963 ft | 466 kts | 214° |
| 2026-05-07 21:20 | -13.25032 | -179.73477 | 37964 ft | 466 kts | 214° |
| 2026-05-07 21:20 | -13.30546 | -179.76986 | 37967 ft | 467 kts | 214° |
| 2026-05-07 21:21 | -13.36072 | -179.80505 | 37971 ft | 467 kts | 214° |
| 2026-05-07 21:21 | -13.41601 | -179.84027 | 37972 ft | 468 kts | 214° |
| 2026-05-07 21:22 | -13.47140 | -179.87558 | 37974 ft | 468 kts | 214° |
| 2026-05-07 21:22 | -13.52675 | -179.91088 | 37974 ft | 467 kts | 214° |
| 2026-05-07 21:23 | -13.58189 | -179.94607 | 37972 ft | 465 kts | 214° |
| 2026-05-07 21:23 | -13.63651 | -179.98095 | 37973 ft | 465 kts | 214° |
| 2026-05-07 21:24 | -13.69150 | 179.98392 | 37969 ft | 465 kts | 214° |
| 2026-05-07 21:24 | -13.74654 | 179.94874 | 37966 ft | 465 kts | 214° |
| 2026-05-07 21:25 | -13.80148 | 179.91360 | 37970 ft | 465 kts | 214° |
| 2026-05-07 21:25 | -13.85613 | 179.87863 | 37969 ft | 465 kts | 214° |
| 2026-05-07 21:26 | -13.91094 | 179.84353 | 37966 ft | 463 kts | 214° |
| 2026-05-07 21:26 | -13.96560 | 179.80851 | 37968 ft | 462 kts | 214° |
| 2026-05-07 21:27 | -14.02030 | 179.77345 | 37978 ft | 463 kts | 214° |
| 2026-05-07 21:27 | -14.07501 | 179.73836 | 37977 ft | 464 kts | 214° |
| 2026-05-07 21:28 | -14.12990 | 179.70313 | 37980 ft | 465 kts | 214° |
| 2026-05-07 21:28 | -14.18491 | 179.66780 | 37979 ft | 465 kts | 214° |
| 2026-05-07 21:29 | -14.23971 | 179.63260 | 37979 ft | 462 kts | 214° |
| 2026-05-07 21:29 | -14.29420 | 179.59756 | 37972 ft | 461 kts | 214° |
| 2026-05-07 21:30 | -14.34817 | 179.56285 | 37970 ft | 460 kts | 214° |
| 2026-05-07 21:30 | -14.40259 | 179.52782 | 37971 ft | 461 kts | 214° |
| 2026-05-07 21:31 | -14.45707 | 179.49274 | 37979 ft | 462 kts | 214° |
| 2026-05-07 21:31 | -14.51170 | 179.45753 | 37984 ft | 463 kts | 214° |
| 2026-05-07 21:32 | -14.56637 | 179.42229 | 37983 ft | 463 kts | 214° |
| 2026-05-07 21:32 | -14.62095 | 179.38707 | 37980 ft | 461 kts | 214° |
| 2026-05-07 21:33 | -14.67531 | 179.35198 | 37979 ft | 460 kts | 214° |
| 2026-05-07 21:33 | -14.72950 | 179.31698 | 37976 ft | 460 kts | 214° |
| 2026-05-07 21:34 | -14.78352 | 179.28207 | 37978 ft | 461 kts | 214° |
| 2026-05-07 21:34 | -14.83789 | 179.24691 | 37975 ft | 461 kts | 214° |
| 2026-05-07 21:35 | -14.89232 | 179.21170 | 37977 ft | 461 kts | 214° |
| 2026-05-07 21:35 | -14.94666 | 179.17652 | 37997 ft | 460 kts | 214° |
| 2026-05-07 21:36 | -15.00075 | 179.14147 | 37995 ft | 458 kts | 214° |
| 2026-05-07 21:36 | -15.05478 | 179.10645 | 37991 ft | 458 kts | 214° |
| 2026-05-07 21:37 | -15.10878 | 179.07142 | 37993 ft | 458 kts | 214° |
| 2026-05-07 21:37 | -15.16271 | 179.03642 | 37995 ft | 458 kts | 214° |
| 2026-05-07 21:38 | -15.21667 | 179.00137 | 37997 ft | 458 kts | 214° |
| 2026-05-07 21:38 | -15.27054 | 178.96602 | 38001 ft | 457 kts | 219° |
| 2026-05-07 21:39 | -15.31899 | 178.92440 | 38002 ft | 455 kts | 222° |
| 2026-05-07 21:39 | -15.36745 | 178.88171 | 38000 ft | 453 kts | 222° |
| 2026-05-07 21:40 | -15.41519 | 178.83971 | 37997 ft | 453 kts | 222° |
| 2026-05-07 21:40 | -15.46329 | 178.79734 | 37996 ft | 454 kts | 222° |
| 2026-05-07 21:41 | -15.51142 | 178.75493 | 38001 ft | 454 kts | 222° |
| 2026-05-07 21:41 | -15.55966 | 178.71238 | 37998 ft | 454 kts | 222° |
| 2026-05-07 21:42 | -15.60783 | 178.66988 | 38001 ft | 454 kts | 222° |
| 2026-05-07 21:42 | -15.65593 | 178.62741 | 38002 ft | 453 kts | 222° |
| 2026-05-07 21:43 | -15.70378 | 178.58513 | 38000 ft | 451 kts | 223° |
| 2026-05-07 21:43 | -15.75153 | 178.54291 | 38001 ft | 452 kts | 223° |
| 2026-05-07 21:44 | -15.79909 | 178.50083 | 38004 ft | 452 kts | 223° |
| 2026-05-07 21:44 | -15.84700 | 178.45842 | 37998 ft | 452 kts | 222° |
| 2026-05-07 21:45 | -15.89487 | 178.41602 | 38000 ft | 452 kts | 222° |
| 2026-05-07 21:45 | -15.94267 | 178.37365 | 38000 ft | 451 kts | 222° |
| 2026-05-07 21:46 | -15.99043 | 178.33128 | 38020 ft | 451 kts | 222° |
| 2026-05-07 21:46 | -16.03803 | 178.28904 | 38000 ft | 448 kts | 223° |
| 2026-05-07 21:47 | -16.08548 | 178.24690 | 38004 ft | 448 kts | 223° |
| 2026-05-07 21:47 | -16.12491 | 178.21186 | 38006 ft | 449 kts | 223° |
| 2026-05-07 21:48 | -16.13050 | 178.20689 | 38006 ft | 449 kts | 223° |
| 2026-05-07 21:49 | -16.17699 | 178.16555 | 38000 ft | 449 kts | 223° |
| 2026-05-07 21:49 | -16.22413 | 178.12360 | 38003 ft | 449 kts | 223° |
| 2026-05-07 21:50 | -16.27166 | 178.08128 | 37999 ft | 449 kts | 222° |
| 2026-05-07 21:50 | -16.31917 | 178.03894 | 38002 ft | 450 kts | 223° |
| 2026-05-07 21:51 | -16.36680 | 177.99648 | 38014 ft | 449 kts | 223° |
| 2026-05-07 21:51 | -16.41413 | 177.95425 | 38004 ft | 447 kts | 223° |
| 2026-05-07 21:52 | -16.46142 | 177.91204 | 38001 ft | 447 kts | 223° |
| 2026-05-07 21:52 | -16.50870 | 177.86979 | 38003 ft | 449 kts | 223° |
| 2026-05-07 21:53 | -16.55612 | 177.82740 | 38011 ft | 450 kts | 223° |
| 2026-05-07 21:53 | -16.60367 | 177.78486 | 38011 ft | 450 kts | 223° |
| 2026-05-07 21:54 | -16.65108 | 177.74243 | 38019 ft | 448 kts | 223° |
| 2026-05-07 21:54 | -16.69833 | 177.70009 | 38014 ft | 447 kts | 222° |
| 2026-05-07 21:55 | -16.74513 | 177.65814 | 38012 ft | 446 kts | 222° |
| 2026-05-07 21:55 | -16.79231 | 177.61582 | 38014 ft | 448 kts | 222° |
| 2026-05-07 21:56 | -16.83960 | 177.57337 | 38015 ft | 449 kts | 222° |
| 2026-05-07 21:56 | -16.88701 | 177.53080 | 38013 ft | 449 kts | 223° |
| 2026-05-07 21:57 | -16.93427 | 177.48831 | 38009 ft | 448 kts | 223° |
| 2026-05-07 21:57 | -16.98143 | 177.44589 | 38011 ft | 446 kts | 223° |
| 2026-05-07 21:58 | -17.02848 | 177.40354 | 38013 ft | 447 kts | 223° |
| 2026-05-07 21:58 | -17.07565 | 177.36106 | 38020 ft | 447 kts | 222° |
| 2026-05-07 21:59 | -17.12277 | 177.31858 | 38015 ft | 447 kts | 222° |
| 2026-05-07 21:59 | -17.16994 | 177.27604 | 38010 ft | 448 kts | 222° |
| 2026-05-07 22:00 | -17.21715 | 177.23343 | 38010 ft | 448 kts | 222° |
| 2026-05-07 22:00 | -17.26407 | 177.19105 | 38016 ft | 448 kts | 222° |
| 2026-05-07 22:01 | -17.31127 | 177.14840 | 38018 ft | 448 kts | 222° |
| 2026-05-07 22:01 | -17.35834 | 177.10582 | 38009 ft | 447 kts | 222° |
| 2026-05-07 22:02 | -17.40530 | 177.06331 | 38022 ft | 445 kts | 222° |
| 2026-05-07 22:02 | -17.45213 | 177.02089 | 38013 ft | 446 kts | 222° |
| 2026-05-07 22:03 | -17.49912 | 176.97831 | 38024 ft | 448 kts | 222° |
| 2026-05-07 22:03 | -17.54618 | 176.93562 | 38011 ft | 446 kts | 222° |
| 2026-05-07 22:04 | -17.59312 | 176.89301 | 38015 ft | 446 kts | 222° |
| 2026-05-07 22:04 | -17.64013 | 176.85031 | 38016 ft | 447 kts | 222° |
| 2026-05-07 22:05 | -17.67914 | 176.81486 | 38021 ft | 446 kts | 222° |
| 2026-05-07 22:05 | -17.72599 | 176.77224 | 38034 ft | 446 kts | 222° |
| 2026-05-07 22:06 | -17.77285 | 176.72959 | 38011 ft | 445 kts | 222° |
| 2026-05-07 22:06 | -17.81961 | 176.68700 | 38011 ft | 445 kts | 222° |
| 2026-05-07 22:07 | -17.86645 | 176.64430 | 38015 ft | 447 kts | 222° |
| 2026-05-07 22:07 | -17.91330 | 176.60157 | 38014 ft | 445 kts | 222° |
| 2026-05-07 22:08 | -17.96002 | 176.55892 | 38014 ft | 446 kts | 222° |
| 2026-05-07 22:08 | -18.00687 | 176.51612 | 38018 ft | 446 kts | 222° |
| 2026-05-07 22:09 | -18.05364 | 176.47337 | 38015 ft | 445 kts | 222° |
| 2026-05-07 22:09 | -18.10037 | 176.43061 | 38015 ft | 446 kts | 222° |
| 2026-05-07 22:10 | -18.14713 | 176.38781 | 38034 ft | 447 kts | 222° |
| 2026-05-07 22:10 | -18.19396 | 176.34490 | 38016 ft | 445 kts | 222° |
| 2026-05-07 22:11 | -18.24064 | 176.30210 | 38015 ft | 446 kts | 222° |
| 2026-05-07 22:11 | -18.28709 | 176.25949 | 38035 ft | 447 kts | 222° |
| 2026-05-07 22:12 | -18.33387 | 176.21653 | 38013 ft | 445 kts | 222° |
| 2026-05-07 22:12 | -18.38052 | 176.17365 | 38013 ft | 446 kts | 222° |
| 2026-05-07 22:13 | -18.42729 | 176.13066 | 38023 ft | 445 kts | 222° |
| 2026-05-07 22:13 | -18.47388 | 176.08777 | 38023 ft | 445 kts | 222° |
| 2026-05-07 22:14 | -18.52043 | 176.04491 | 38021 ft | 445 kts | 222° |
| 2026-05-07 22:14 | -18.56700 | 176.00198 | 38024 ft | 445 kts | 222° |
| 2026-05-07 22:15 | -18.61330 | 175.95929 | 38019 ft | 445 kts | 222° |
| 2026-05-07 22:15 | -18.65984 | 175.91632 | 38021 ft | 445 kts | 222° |
| 2026-05-07 22:16 | -18.70644 | 175.87328 | 38026 ft | 445 kts | 222° |
| 2026-05-07 22:16 | -18.75302 | 175.83021 | 38028 ft | 445 kts | 222° |
| 2026-05-07 22:17 | -18.79941 | 175.78730 | 38025 ft | 443 kts | 222° |
| 2026-05-07 22:17 | -18.84587 | 175.74428 | 38026 ft | 445 kts | 222° |
| 2026-05-07 22:18 | -18.91547 | 175.67978 | 38022 ft | 444 kts | 222° |
| 2026-05-07 22:19 | -18.96169 | 175.63690 | 38028 ft | 444 kts | 222° |
| 2026-05-07 22:19 | -19.00814 | 175.59378 | 38028 ft | 444 kts | 222° |
| 2026-05-07 22:20 | -19.05457 | 175.55065 | 38029 ft | 444 kts | 222° |
| 2026-05-07 22:20 | -19.10077 | 175.50769 | 38032 ft | 440 kts | 222° |
| 2026-05-07 22:21 | -19.14680 | 175.46485 | 38031 ft | 441 kts | 222° |
| 2026-05-07 22:21 | -19.19288 | 175.42194 | 38021 ft | 440 kts | 223° |
| 2026-05-07 22:22 | -19.23893 | 175.37902 | 38023 ft | 442 kts | 223° |
| 2026-05-07 22:22 | -19.28333 | 175.33413 | 38043 ft | 441 kts | 231° |
| 2026-05-07 22:23 | -19.32234 | 175.28394 | 38039 ft | 441 kts | 231° |
| 2026-05-07 22:23 | -19.36123 | 175.23376 | 38041 ft | 441 kts | 231° |
| 2026-05-07 22:24 | -19.40013 | 175.18356 | 38055 ft | 441 kts | 231° |
| 2026-05-07 22:24 | -19.43897 | 175.13340 | 38033 ft | 439 kts | 231° |
| 2026-05-07 22:25 | -19.47764 | 175.08341 | 38038 ft | 439 kts | 231° |
| 2026-05-07 22:25 | -19.51634 | 175.03333 | 38031 ft | 438 kts | 231° |
| 2026-05-07 22:26 | -19.55500 | 174.98327 | 38030 ft | 438 kts | 231° |
| 2026-05-07 22:26 | -19.59362 | 174.93323 | 38030 ft | 438 kts | 231° |
| 2026-05-07 22:27 | -19.63221 | 174.88317 | 38030 ft | 438 kts | 231° |
| 2026-05-07 22:27 | -19.67083 | 174.83305 | 38030 ft | 439 kts | 231° |
| 2026-05-07 22:28 | -19.70939 | 174.78295 | 38030 ft | 438 kts | 231° |
| 2026-05-07 22:28 | -19.74773 | 174.73310 | 38043 ft | 437 kts | 231° |
| 2026-05-07 22:29 | -19.78609 | 174.68317 | 38042 ft | 436 kts | 231° |
| 2026-05-07 22:29 | -19.82445 | 174.63321 | 38031 ft | 437 kts | 231° |
| 2026-05-07 22:30 | -19.86277 | 174.58325 | 38032 ft | 437 kts | 231° |
| 2026-05-07 22:30 | -19.90116 | 174.53318 | 38032 ft | 436 kts | 231° |
| 2026-05-07 22:31 | -19.93948 | 174.48313 | 38033 ft | 436 kts | 231° |
| 2026-05-07 22:31 | -19.97777 | 174.43309 | 38033 ft | 437 kts | 231° |
| 2026-05-07 22:32 | -20.01612 | 174.38293 | 38034 ft | 436 kts | 231° |
| 2026-05-07 22:32 | -20.05439 | 174.33283 | 38050 ft | 436 kts | 231° |
| 2026-05-07 22:33 | -20.09236 | 174.28307 | 38036 ft | 433 kts | 231° |
| 2026-05-07 22:33 | -20.13047 | 174.23310 | 38049 ft | 438 kts | 231° |
| 2026-05-07 22:33 | -20.14971 | 174.20785 | 38247 ft | 439 kts | 231° |
| 2026-05-07 22:34 | -20.16894 | 174.18261 | 38511 ft | 438 kts | 231° |
| 2026-05-07 22:34 | -20.18814 | 174.15740 | 38724 ft | 438 kts | 231° |
| 2026-05-07 22:34 | -20.20707 | 174.13251 | 38924 ft | 438 kts | 231° |
| 2026-05-07 22:34 | -20.22621 | 174.10736 | 39097 ft | 437 kts | 232° |
| 2026-05-07 22:35 | -20.24534 | 174.08220 | 39282 ft | 437 kts | 232° |
| 2026-05-07 22:35 | -20.26450 | 174.05699 | 39461 ft | 437 kts | 232° |
| 2026-05-07 22:35 | -20.28361 | 174.03185 | 39644 ft | 436 kts | 232° |
| 2026-05-07 22:35 | -20.30268 | 174.00672 | 39811 ft | 436 kts | 232° |
| 2026-05-07 22:36 | -20.32172 | 173.98164 | 39998 ft | 435 kts | 232° |
| 2026-05-07 22:36 | -20.36001 | 173.93117 | 40031 ft | 438 kts | 232° |
| 2026-05-07 22:37 | -20.39806 | 173.88097 | 40037 ft | 432 kts | 232° |
| 2026-05-07 22:37 | -20.43581 | 173.83111 | 40043 ft | 431 kts | 232° |
| 2026-05-07 22:38 | -20.47331 | 173.78155 | 40041 ft | 432 kts | 232° |
| 2026-05-07 22:38 | -20.51111 | 173.73155 | 40040 ft | 432 kts | 232° |
| 2026-05-07 22:39 | -20.54879 | 173.68167 | 40040 ft | 431 kts | 232° |
| 2026-05-07 22:39 | -20.58647 | 173.63173 | 40039 ft | 432 kts | 232° |
| 2026-05-07 22:40 | -20.62402 | 173.58195 | 40043 ft | 432 kts | 232° |
| 2026-05-07 22:40 | -20.66162 | 173.53203 | 40034 ft | 431 kts | 232° |
| 2026-05-07 22:41 | -20.69927 | 173.48200 | 40048 ft | 432 kts | 233° |
| 2026-05-07 22:41 | -20.73678 | 173.43214 | 40053 ft | 429 kts | 233° |
| 2026-05-07 22:42 | -20.77422 | 173.38229 | 40049 ft | 430 kts | 233° |
| 2026-05-07 22:42 | -20.81170 | 173.33237 | 40048 ft | 430 kts | 233° |
| 2026-05-07 22:43 | -20.84888 | 173.28280 | 40047 ft | 429 kts | 233° |
| 2026-05-07 22:43 | -20.88622 | 173.23297 | 40052 ft | 430 kts | 233° |
| 2026-05-07 22:44 | -20.92368 | 173.18293 | 40052 ft | 430 kts | 233° |
| 2026-05-07 22:44 | -20.96102 | 173.13303 | 40043 ft | 430 kts | 233° |
| 2026-05-07 22:45 | -20.99853 | 173.08282 | 40052 ft | 432 kts | 233° |
| 2026-05-07 22:45 | -21.03592 | 173.03276 | 40056 ft | 429 kts | 233° |
| 2026-05-07 22:46 | -21.07324 | 172.98272 | 40053 ft | 430 kts | 233° |
| 2026-05-07 22:46 | -21.11034 | 172.93297 | 40057 ft | 429 kts | 233° |
| 2026-05-07 22:47 | -21.14752 | 172.88303 | 40057 ft | 430 kts | 233° |
| 2026-05-07 22:47 | -21.18487 | 172.83285 | 40058 ft | 430 kts | 233° |
| 2026-05-07 22:48 | -21.22207 | 172.78280 | 40055 ft | 429 kts | 233° |
| 2026-05-07 22:48 | -21.25931 | 172.73266 | 40057 ft | 430 kts | 233° |
| 2026-05-07 22:49 | -21.29648 | 172.68257 | 40053 ft | 429 kts | 233° |
| 2026-05-07 22:49 | -21.33343 | 172.63272 | 40056 ft | 430 kts | 233° |
| 2026-05-07 22:50 | -21.37057 | 172.58259 | 40059 ft | 429 kts | 233° |
| 2026-05-07 22:50 | -21.40770 | 172.53241 | 40063 ft | 430 kts | 233° |
| 2026-05-07 22:51 | -21.44485 | 172.48217 | 40059 ft | 429 kts | 233° |
| 2026-05-07 22:51 | -21.47566 | 172.44045 | 40057 ft | 430 kts | 233° |
| 2026-05-07 22:52 | -21.51279 | 172.39015 | 40052 ft | 430 kts | 233° |
| 2026-05-07 22:52 | -21.54982 | 172.33994 | 40053 ft | 428 kts | 233° |
| 2026-05-07 22:53 | -21.58673 | 172.28983 | 40051 ft | 427 kts | 233° |
| 2026-05-07 22:53 | -21.62362 | 172.23972 | 40065 ft | 427 kts | 233° |
| 2026-05-07 22:54 | -21.66021 | 172.18997 | 40060 ft | 426 kts | 233° |
| 2026-05-07 22:54 | -21.69716 | 172.13968 | 40062 ft | 426 kts | 233° |
| 2026-05-07 22:55 | -21.73366 | 172.08995 | 40067 ft | 427 kts | 233° |
| 2026-05-07 22:55 | -21.77047 | 172.03977 | 40064 ft | 427 kts | 233° |
| 2026-05-07 22:56 | -21.80735 | 171.98944 | 40061 ft | 429 kts | 233° |
| 2026-05-07 22:56 | -21.84429 | 171.93897 | 40062 ft | 429 kts | 233° |
| 2026-05-07 22:57 | -21.88118 | 171.88852 | 40064 ft | 428 kts | 233° |
| 2026-05-07 22:57 | -21.91806 | 171.83806 | 40064 ft | 428 kts | 233° |
| 2026-05-07 22:58 | -21.95475 | 171.78780 | 40067 ft | 425 kts | 233° |
| 2026-05-07 22:58 | -21.99121 | 171.73780 | 40066 ft | 424 kts | 233° |
| 2026-05-07 22:59 | -22.02746 | 171.68805 | 40067 ft | 425 kts | 233° |
| 2026-05-07 22:59 | -22.06398 | 171.63788 | 40056 ft | 426 kts | 234° |
| 2026-05-07 23:00 | -22.10073 | 171.58735 | 40060 ft | 429 kts | 234° |
| 2026-05-07 23:00 | -22.13744 | 171.53681 | 40065 ft | 427 kts | 234° |
| 2026-05-07 23:01 | -22.17398 | 171.48644 | 40062 ft | 425 kts | 234° |
| 2026-05-07 23:01 | -22.21050 | 171.43606 | 40061 ft | 426 kts | 234° |
| 2026-05-07 23:02 | -22.24698 | 171.38568 | 40068 ft | 425 kts | 234° |
| 2026-05-07 23:02 | -22.28298 | 171.33592 | 40057 ft | 422 kts | 234° |
| 2026-05-07 23:03 | -22.31909 | 171.28596 | 40054 ft | 422 kts | 234° |
| 2026-05-07 23:03 | -22.35520 | 171.23595 | 40064 ft | 421 kts | 234° |
| 2026-05-07 23:04 | -22.39114 | 171.18615 | 40058 ft | 420 kts | 234° |
| 2026-05-07 23:04 | -22.42706 | 171.13630 | 40060 ft | 420 kts | 234° |
| 2026-05-07 23:05 | -22.46300 | 171.08640 | 40059 ft | 420 kts | 234° |
| 2026-05-07 23:05 | -22.49902 | 171.03631 | 40071 ft | 424 kts | 234° |
| 2026-05-07 23:06 | -22.53536 | 170.98577 | 40090 ft | 426 kts | 234° |
| 2026-05-07 23:06 | -22.57134 | 170.93566 | 40070 ft | 423 kts | 234° |
| 2026-05-07 23:07 | -22.60735 | 170.88545 | 40068 ft | 422 kts | 234° |
| 2026-05-07 23:07 | -22.64341 | 170.83513 | 40068 ft | 423 kts | 234° |
| 2026-05-07 23:08 | -22.67940 | 170.78488 | 40063 ft | 422 kts | 234° |
| 2026-05-07 23:08 | -22.71544 | 170.73449 | 40069 ft | 423 kts | 234° |
| 2026-05-07 23:09 | -22.75138 | 170.68420 | 40068 ft | 422 kts | 235° |
| 2026-05-07 23:09 | -22.78740 | 170.63374 | 40070 ft | 423 kts | 235° |
| 2026-05-07 23:10 | -22.82332 | 170.58338 | 40064 ft | 422 kts | 235° |
| 2026-05-07 23:10 | -22.85924 | 170.53296 | 40071 ft | 421 kts | 235° |
| 2026-05-07 23:11 | -22.89509 | 170.48260 | 40073 ft | 423 kts | 235° |
| 2026-05-07 23:11 | -22.93104 | 170.43204 | 40072 ft | 423 kts | 235° |
| 2026-05-07 23:12 | -22.96677 | 170.38175 | 40076 ft | 424 kts | 235° |
| 2026-05-07 23:12 | -23.00279 | 170.33101 | 40080 ft | 424 kts | 235° |
| 2026-05-07 23:13 | -23.03874 | 170.28031 | 40070 ft | 423 kts | 235° |
| 2026-05-07 23:13 | -23.07459 | 170.22970 | 40075 ft | 422 kts | 235° |
| 2026-05-07 23:14 | -23.11028 | 170.17927 | 40071 ft | 420 kts | 235° |
| 2026-05-07 23:14 | -23.14590 | 170.12889 | 40074 ft | 420 kts | 236° |
| 2026-05-07 23:15 | -23.18151 | 170.07847 | 40077 ft | 421 kts | 236° |
| 2026-05-07 23:15 | -23.21697 | 170.02820 | 40081 ft | 422 kts | 236° |
| 2026-05-07 23:16 | -23.25274 | 169.97746 | 40079 ft | 423 kts | 236° |
| 2026-05-07 23:16 | -23.28858 | 169.92657 | 40076 ft | 423 kts | 236° |
| 2026-05-07 23:17 | -23.32433 | 169.87575 | 40078 ft | 423 kts | 236° |
| 2026-05-07 23:17 | -23.36008 | 169.82488 | 40076 ft | 423 kts | 236° |
| 2026-05-07 23:18 | -23.39578 | 169.77403 | 40076 ft | 423 kts | 236° |
| 2026-05-07 23:18 | -23.43157 | 169.72301 | 40078 ft | 423 kts | 236° |
| 2026-05-07 23:19 | -23.46709 | 169.67232 | 40072 ft | 420 kts | 236° |
| 2026-05-07 23:19 | -23.50249 | 169.62173 | 40077 ft | 420 kts | 236° |
| 2026-05-07 23:20 | -23.53786 | 169.57115 | 40068 ft | 420 kts | 236° |
| 2026-05-07 23:20 | -23.57306 | 169.52077 | 40066 ft | 420 kts | 236° |
| 2026-05-07 23:21 | -23.60846 | 169.47005 | 40074 ft | 420 kts | 236° |
| 2026-05-07 23:21 | -23.64384 | 169.41931 | 40066 ft | 420 kts | 236° |
| 2026-05-07 23:22 | -23.67925 | 169.36846 | 40073 ft | 421 kts | 236° |
| 2026-05-07 23:22 | -23.71472 | 169.31749 | 40066 ft | 421 kts | 237° |
| 2026-05-07 23:23 | -23.74994 | 169.26682 | 40063 ft | 418 kts | 237° |
| 2026-05-07 23:23 | -23.78506 | 169.21623 | 40064 ft | 418 kts | 237° |
| 2026-05-07 23:24 | -23.82022 | 169.16556 | 40063 ft | 419 kts | 237° |
| 2026-05-07 23:24 | -23.85516 | 169.11513 | 40065 ft | 419 kts | 237° |
| 2026-05-07 23:25 | -23.89036 | 169.06429 | 40072 ft | 419 kts | 237° |
| 2026-05-07 23:25 | -23.92554 | 169.01341 | 40077 ft | 419 kts | 237° |
| 2026-05-07 23:26 | -23.96066 | 168.96258 | 40082 ft | 419 kts | 237° |
| 2026-05-07 23:26 | -23.99577 | 168.91171 | 40070 ft | 418 kts | 237° |
| 2026-05-07 23:27 | -24.04811 | 168.83576 | 40073 ft | 417 kts | 237° |
| 2026-05-07 23:27 | -24.08304 | 168.78503 | 40074 ft | 418 kts | 237° |
| 2026-05-07 23:28 | -24.11797 | 168.73423 | 40074 ft | 418 kts | 237° |
| 2026-05-07 23:28 | -24.15273 | 168.68364 | 40069 ft | 419 kts | 237° |
| 2026-05-07 23:29 | -24.18782 | 168.63250 | 40069 ft | 419 kts | 237° |
| 2026-05-07 23:29 | -24.22287 | 168.58139 | 40067 ft | 418 kts | 237° |
| 2026-05-07 23:30 | -24.25771 | 168.53052 | 40067 ft | 417 kts | 237° |
| 2026-05-07 23:30 | -24.29247 | 168.47970 | 40065 ft | 417 kts | 237° |
| 2026-05-07 23:31 | -24.32734 | 168.42868 | 40069 ft | 419 kts | 237° |
| 2026-05-07 23:31 | -24.36228 | 168.37752 | 40067 ft | 419 kts | 237° |
| 2026-05-07 23:32 | -24.39712 | 168.32643 | 40063 ft | 417 kts | 237° |
| 2026-05-07 23:32 | -24.43161 | 168.27580 | 40070 ft | 417 kts | 237° |
| 2026-05-07 23:33 | -24.46638 | 168.22472 | 40069 ft | 418 kts | 237° |
| 2026-05-07 23:33 | -24.50126 | 168.17341 | 40071 ft | 419 kts | 238° |
| 2026-05-07 23:34 | -24.53614 | 168.12206 | 40074 ft | 419 kts | 238° |
| 2026-05-07 23:34 | -24.57087 | 168.07089 | 40065 ft | 416 kts | 238° |
| 2026-05-07 23:35 | -24.60541 | 168.01990 | 40058 ft | 416 kts | 238° |
| 2026-05-07 23:35 | -24.63995 | 167.96889 | 40057 ft | 416 kts | 238° |
| 2026-05-07 23:36 | -24.67427 | 167.91815 | 40054 ft | 417 kts | 238° |
| 2026-05-07 23:36 | -24.70896 | 167.86680 | 40059 ft | 419 kts | 238° |
| 2026-05-07 23:37 | -24.74371 | 167.81532 | 40060 ft | 418 kts | 238° |
| 2026-05-07 23:37 | -24.77826 | 167.76407 | 40051 ft | 416 kts | 238° |
| 2026-05-07 23:38 | -24.81268 | 167.71295 | 40052 ft | 416 kts | 238° |
| 2026-05-07 23:38 | -24.84716 | 167.66167 | 40057 ft | 415 kts | 238° |
| 2026-05-07 23:39 | -24.88149 | 167.61057 | 40057 ft | 414 kts | 238° |
| 2026-05-07 23:39 | -24.91576 | 167.55949 | 40057 ft | 415 kts | 238° |
| 2026-05-07 23:40 | -24.94999 | 167.50841 | 40062 ft | 418 kts | 238° |
| 2026-05-07 23:40 | -24.98450 | 167.45690 | 40064 ft | 417 kts | 238° |
| 2026-05-07 23:41 | -25.01327 | 167.41389 | 40065 ft | 415 kts | 239° |
| 2026-05-07 23:41 | -25.04754 | 167.36259 | 40059 ft | 415 kts | 239° |
| 2026-05-07 23:42 | -25.08180 | 167.31127 | 40059 ft | 416 kts | 239° |
| 2026-05-07 23:42 | -25.11581 | 167.26028 | 40056 ft | 414 kts | 239° |
| 2026-05-07 23:43 | -25.14984 | 167.20918 | 40057 ft | 413 kts | 239° |
| 2026-05-07 23:43 | -25.18381 | 167.15814 | 40057 ft | 412 kts | 239° |
| 2026-05-07 23:44 | -25.21770 | 167.10715 | 40059 ft | 412 kts | 239° |
| 2026-05-07 23:44 | -25.25167 | 167.05598 | 40063 ft | 414 kts | 239° |
| 2026-05-07 23:45 | -25.28580 | 167.00452 | 40060 ft | 416 kts | 239° |
| 2026-05-07 23:45 | -25.31968 | 166.95340 | 40060 ft | 414 kts | 239° |
| 2026-05-07 23:46 | -25.35359 | 166.90215 | 40055 ft | 412 kts | 239° |
| 2026-05-07 23:46 | -25.38748 | 166.85090 | 40050 ft | 412 kts | 239° |
| 2026-05-07 23:47 | -25.42138 | 166.79955 | 40050 ft | 415 kts | 239° |
| 2026-05-07 23:47 | -25.45544 | 166.74794 | 40054 ft | 415 kts | 239° |
| 2026-05-07 23:48 | -25.48945 | 166.69633 | 40057 ft | 414 kts | 239° |
| 2026-05-07 23:48 | -25.52334 | 166.64484 | 40055 ft | 413 kts | 239° |
| 2026-05-07 23:49 | -25.55712 | 166.59346 | 40049 ft | 412 kts | 239° |
| 2026-05-07 23:49 | -25.59087 | 166.54208 | 40044 ft | 412 kts | 239° |
| 2026-05-07 23:50 | -25.62450 | 166.49082 | 40050 ft | 412 kts | 240° |
| 2026-05-07 23:50 | -25.65804 | 166.43964 | 40057 ft | 411 kts | 240° |
| 2026-05-07 23:51 | -25.69162 | 166.38834 | 40057 ft | 411 kts | 240° |
| 2026-05-07 23:51 | -25.72524 | 166.33691 | 40060 ft | 412 kts | 240° |
| 2026-05-07 23:52 | -25.75898 | 166.28528 | 40053 ft | 414 kts | 240° |
| 2026-05-07 23:52 | -25.79278 | 166.23347 | 40055 ft | 414 kts | 240° |
| 2026-05-07 23:53 | -25.82629 | 166.18206 | 40056 ft | 413 kts | 240° |
| 2026-05-07 23:53 | -25.85990 | 166.13043 | 40056 ft | 412 kts | 240° |
| 2026-05-07 23:54 | -25.89343 | 166.07888 | 40070 ft | 411 kts | 241° |
| 2026-05-07 23:54 | -25.92679 | 166.02753 | 40050 ft | 409 kts | 241° |
| 2026-05-07 23:55 | -25.96015 | 165.97610 | 40053 ft | 411 kts | 241° |
| 2026-05-07 23:55 | -25.99360 | 165.92450 | 40055 ft | 412 kts | 241° |
| 2026-05-07 23:56 | -26.02714 | 165.87269 | 40046 ft | 413 kts | 241° |
| 2026-05-07 23:56 | -26.06065 | 165.82089 | 40050 ft | 411 kts | 241° |
| 2026-05-07 23:57 | -26.09376 | 165.76962 | 40054 ft | 411 kts | 241° |
| 2026-05-07 23:57 | -26.12710 | 165.71793 | 40048 ft | 412 kts | 241° |
| 2026-05-07 23:58 | -26.16052 | 165.66610 | 40048 ft | 412 kts | 241° |
| 2026-05-07 23:58 | -26.19382 | 165.61438 | 40047 ft | 410 kts | 241° |
| 2026-05-07 23:59 | -26.22697 | 165.56281 | 40045 ft | 409 kts | 241° |
| 2026-05-07 23:59 | -26.26016 | 165.51115 | 40047 ft | 409 kts | 241° |
| 2026-05-08 00:00 | -26.29329 | 165.45952 | 40047 ft | 410 kts | 241° |
| 2026-05-08 00:00 | -26.32643 | 165.40780 | 40049 ft | 410 kts | 241° |
| 2026-05-08 00:01 | -26.35960 | 165.35600 | 40050 ft | 411 kts | 241° |
| 2026-05-08 00:01 | -26.39275 | 165.30414 | 40049 ft | 411 kts | 241° |
| 2026-05-08 00:02 | -26.42597 | 165.25215 | 40053 ft | 411 kts | 242° |
| 2026-05-08 00:02 | -26.45880 | 165.20069 | 40047 ft | 408 kts | 242° |
| 2026-05-08 00:03 | -26.49174 | 165.14898 | 40046 ft | 409 kts | 242° |
| 2026-05-08 00:03 | -26.52474 | 165.09714 | 40128 ft | 410 kts | 242° |
| 2026-05-08 00:04 | -26.54121 | 165.07126 | 40338 ft | 409 kts | 242° |
| 2026-05-08 00:04 | -26.55767 | 165.04535 | 40458 ft | 410 kts | 242° |
| 2026-05-08 00:04 | -26.57419 | 165.01933 | 40612 ft | 410 kts | 242° |
| 2026-05-08 00:04 | -26.59069 | 164.99336 | 40767 ft | 410 kts | 242° |
| 2026-05-08 00:05 | -26.60724 | 164.96729 | 40930 ft | 411 kts | 242° |
| 2026-05-08 00:05 | -26.62376 | 164.94123 | 41074 ft | 411 kts | 242° |
| 2026-05-08 00:05 | -26.64006 | 164.91552 | 41214 ft | 411 kts | 242° |
| 2026-05-08 00:05 | -26.65659 | 164.88941 | 41369 ft | 411 kts | 242° |
| 2026-05-08 00:06 | -26.67312 | 164.86331 | 41564 ft | 411 kts | 242° |
| 2026-05-08 00:06 | -26.68965 | 164.83718 | 41717 ft | 411 kts | 242° |
| 2026-05-08 00:06 | -26.70616 | 164.81106 | 41857 ft | 411 kts | 242° |
| 2026-05-08 00:06 | -26.72265 | 164.78498 | 41995 ft | 411 kts | 242° |
| 2026-05-08 00:07 | -26.75584 | 164.73241 | 42030 ft | 415 kts | 242° |
| 2026-05-08 00:07 | -26.78903 | 164.67983 | 42037 ft | 412 kts | 242° |
| 2026-05-08 00:08 | -26.82188 | 164.62764 | 42028 ft | 412 kts | 242° |
| 2026-05-08 00:08 | -26.85484 | 164.57527 | 42033 ft | 411 kts | 242° |
| 2026-05-08 00:09 | -26.88780 | 164.52283 | 42036 ft | 411 kts | 242° |
| 2026-05-08 00:09 | -26.92071 | 164.47040 | 42035 ft | 411 kts | 242° |
| 2026-05-08 00:10 | -26.95364 | 164.41788 | 42033 ft | 411 kts | 242° |
| 2026-05-08 00:10 | -26.98627 | 164.36578 | 42028 ft | 411 kts | 242° |
| 2026-05-08 00:11 | -27.01909 | 164.31332 | 42024 ft | 411 kts | 243° |
| 2026-05-08 00:11 | -27.05188 | 164.26083 | 42033 ft | 411 kts | 243° |
| 2026-05-08 00:12 | -27.08466 | 164.20831 | 42032 ft | 411 kts | 243° |
| 2026-05-08 00:12 | -27.11744 | 164.15573 | 42036 ft | 411 kts | 243° |
| 2026-05-08 00:13 | -27.15021 | 164.10309 | 42065 ft | 411 kts | 243° |
| 2026-05-08 00:13 | -27.18296 | 164.05043 | 42035 ft | 411 kts | 243° |
| 2026-05-08 00:14 | -27.21561 | 163.99787 | 42038 ft | 409 kts | 243° |
| 2026-05-08 00:14 | -27.24820 | 163.94532 | 42039 ft | 411 kts | 243° |
| 2026-05-08 00:15 | -27.28077 | 163.89276 | 42040 ft | 413 kts | 243° |
| 2026-05-08 00:15 | -27.31364 | 163.83967 | 42041 ft | 413 kts | 243° |
| 2026-05-08 00:16 | -27.34642 | 163.78666 | 42044 ft | 411 kts | 243° |
| 2026-05-08 00:16 | -27.37902 | 163.73384 | 42036 ft | 410 kts | 243° |
| 2026-05-08 00:17 | -27.41150 | 163.68116 | 42033 ft | 410 kts | 243° |
| 2026-05-08 00:17 | -27.44399 | 163.62842 | 42040 ft | 409 kts | 243° |
| 2026-05-08 00:18 | -27.47636 | 163.57581 | 42034 ft | 409 kts | 243° |
| 2026-05-08 00:18 | -27.50877 | 163.52306 | 42037 ft | 410 kts | 243° |
| 2026-05-08 00:19 | -27.54107 | 163.47044 | 42043 ft | 411 kts | 243° |
| 2026-05-08 00:19 | -27.57357 | 163.41742 | 42051 ft | 412 kts | 243° |
| 2026-05-08 00:20 | -27.60617 | 163.36416 | 42042 ft | 413 kts | 243° |
| 2026-05-08 00:20 | -27.63871 | 163.31097 | 42081 ft | 411 kts | 243° |
| 2026-05-08 00:21 | -27.67107 | 163.25799 | 42030 ft | 408 kts | 244° |
| 2026-05-08 00:21 | -27.70313 | 163.20544 | 42035 ft | 405 kts | 244° |
| 2026-05-08 00:22 | -27.73503 | 163.15307 | 42029 ft | 404 kts | 244° |
| 2026-05-08 00:22 | -27.76682 | 163.10083 | 42031 ft | 404 kts | 244° |
| 2026-05-08 00:23 | -27.79842 | 163.04885 | 42028 ft | 404 kts | 244° |
| 2026-05-08 00:23 | -27.83020 | 162.99649 | 42037 ft | 404 kts | 244° |
| 2026-05-08 00:24 | -27.86195 | 162.94411 | 42044 ft | 404 kts | 244° |
| 2026-05-08 00:24 | -27.89383 | 162.89142 | 42047 ft | 408 kts | 244° |
| 2026-05-08 00:25 | -27.92596 | 162.83831 | 42053 ft | 410 kts | 244° |
| 2026-05-08 00:25 | -27.95817 | 162.78496 | 42054 ft | 411 kts | 244° |
| 2026-05-08 00:26 | -27.99038 | 162.73158 | 42055 ft | 410 kts | 244° |
| 2026-05-08 00:26 | -28.02233 | 162.67853 | 42059 ft | 410 kts | 244° |
| 2026-05-08 00:27 | -28.05448 | 162.62510 | 42054 ft | 410 kts | 244° |
| 2026-05-08 00:27 | -28.08651 | 162.57180 | 42050 ft | 409 kts | 244° |
| 2026-05-08 00:28 | -28.11851 | 162.51848 | 42053 ft | 409 kts | 244° |
| 2026-05-08 00:28 | -28.15052 | 162.46509 | 42050 ft | 408 kts | 244° |
| 2026-05-08 00:29 | -28.18236 | 162.41190 | 42046 ft | 407 kts | 244° |
| 2026-05-08 00:29 | -28.21390 | 162.35915 | 42046 ft | 407 kts | 244° |
| 2026-05-08 00:30 | -28.24570 | 162.30588 | 42048 ft | 409 kts | 244° |
| 2026-05-08 00:30 | -28.27245 | 162.26105 | 42052 ft | 410 kts | 244° |
| 2026-05-08 00:31 | -28.30421 | 162.20775 | 42058 ft | 411 kts | 245° |
| 2026-05-08 00:31 | -28.33617 | 162.15406 | 42056 ft | 411 kts | 245° |
| 2026-05-08 00:32 | -28.36819 | 162.10016 | 42058 ft | 412 kts | 245° |
| 2026-05-08 00:32 | -28.40021 | 162.04623 | 42057 ft | 412 kts | 245° |
| 2026-05-08 00:33 | -28.43221 | 161.99225 | 42058 ft | 411 kts | 245° |
| 2026-05-08 00:33 | -28.46412 | 161.93835 | 42059 ft | 411 kts | 245° |
| 2026-05-08 00:34 | -28.49599 | 161.88447 | 42057 ft | 410 kts | 245° |
| 2026-05-08 00:34 | -28.52771 | 161.83076 | 42054 ft | 408 kts | 245° |
| 2026-05-08 00:35 | -28.55942 | 161.77697 | 42054 ft | 410 kts | 245° |
| 2026-05-08 00:35 | -28.59108 | 161.72323 | 42051 ft | 413 kts | 245° |
| 2026-05-08 00:36 | -28.62303 | 161.66895 | 42057 ft | 413 kts | 245° |
| 2026-05-08 00:36 | -28.65503 | 161.61447 | 42060 ft | 414 kts | 245° |
| 2026-05-08 00:37 | -28.68702 | 161.55996 | 42056 ft | 414 kts | 245° |
| 2026-05-08 00:38 | -28.73487 | 161.47830 | 42056 ft | 412 kts | 245° |
| 2026-05-08 00:38 | -28.76644 | 161.42431 | 42053 ft | 410 kts | 245° |
| 2026-05-08 00:39 | -28.79803 | 161.37024 | 42083 ft | 410 kts | 245° |
| 2026-05-08 00:39 | -28.82979 | 161.31578 | 42057 ft | 413 kts | 245° |
| 2026-05-08 00:40 | -28.86160 | 161.26121 | 42063 ft | 413 kts | 245° |
| 2026-05-08 00:40 | -28.89343 | 161.20649 | 42063 ft | 414 kts | 245° |
| 2026-05-08 00:41 | -28.92533 | 161.15162 | 42063 ft | 415 kts | 245° |
| 2026-05-08 00:41 | -28.95703 | 161.09699 | 42064 ft | 415 kts | 245° |
| 2026-05-08 00:42 | -28.98892 | 161.04198 | 42058 ft | 415 kts | 245° |
| 2026-05-08 00:42 | -29.02068 | 160.98712 | 42102 ft | 413 kts | 245° |
| 2026-05-08 00:43 | -29.05233 | 160.93236 | 42048 ft | 412 kts | 245° |
| 2026-05-08 00:43 | -29.08385 | 160.87775 | 42038 ft | 412 kts | 246° |
| 2026-05-08 00:44 | -29.11538 | 160.82308 | 42053 ft | 412 kts | 246° |
| 2026-05-08 00:44 | -29.14688 | 160.76837 | 42052 ft | 412 kts | 246° |
| 2026-05-08 00:45 | -29.17834 | 160.71367 | 42053 ft | 411 kts | 246° |
| 2026-05-08 00:45 | -29.20977 | 160.65894 | 42050 ft | 411 kts | 246° |
| 2026-05-08 00:46 | -29.24123 | 160.60408 | 42049 ft | 411 kts | 246° |
| 2026-05-08 00:46 | -29.27242 | 160.54963 | 42049 ft | 411 kts | 246° |
| 2026-05-08 00:47 | -29.30376 | 160.49485 | 42052 ft | 411 kts | 246° |
| 2026-05-08 00:47 | -29.33509 | 160.44000 | 42058 ft | 411 kts | 246° |
| 2026-05-08 00:48 | -29.36640 | 160.38512 | 42054 ft | 411 kts | 246° |
| 2026-05-08 00:48 | -29.39767 | 160.33024 | 42058 ft | 411 kts | 246° |
| 2026-05-08 00:49 | -29.42895 | 160.27527 | 42061 ft | 411 kts | 246° |
| 2026-05-08 00:49 | -29.45998 | 160.22064 | 42058 ft | 412 kts | 246° |
| 2026-05-08 00:50 | -29.49133 | 160.16541 | 42062 ft | 413 kts | 246° |
| 2026-05-08 00:50 | -29.52265 | 160.11014 | 42063 ft | 413 kts | 246° |
| 2026-05-08 00:51 | -29.55392 | 160.05487 | 42067 ft | 413 kts | 246° |
| 2026-05-08 00:51 | -29.58525 | 159.99945 | 42067 ft | 413 kts | 246° |
| 2026-05-08 00:52 | -29.61652 | 159.94404 | 42067 ft | 413 kts | 246° |
| 2026-05-08 00:52 | -29.64770 | 159.88873 | 42070 ft | 412 kts | 246° |
| 2026-05-08 00:53 | -29.67874 | 159.83358 | 42063 ft | 414 kts | 246° |
| 2026-05-08 00:53 | -29.70994 | 159.77811 | 42056 ft | 412 kts | 246° |
| 2026-05-08 00:54 | -29.74108 | 159.72260 | 42058 ft | 413 kts | 246° |
| 2026-05-08 00:54 | -29.77213 | 159.66726 | 42050 ft | 410 kts | 246° |
| 2026-05-08 00:55 | -29.80287 | 159.61227 | 42050 ft | 412 kts | 246° |
| 2026-05-08 00:55 | -29.83405 | 159.55653 | 42060 ft | 415 kts | 246° |
| 2026-05-08 00:56 | -29.86518 | 159.50083 | 42066 ft | 410 kts | 246° |
| 2026-05-08 00:56 | -29.89606 | 159.44534 | 42051 ft | 411 kts | 246° |
| 2026-05-08 00:57 | -29.92675 | 159.39028 | 42054 ft | 410 kts | 246° |
| 2026-05-08 00:57 | -29.95754 | 159.33488 | 42061 ft | 410 kts | 246° |
| 2026-05-08 00:58 | -29.98837 | 159.27936 | 42053 ft | 412 kts | 246° |
| 2026-05-08 00:58 | -30.01931 | 159.22356 | 42060 ft | 414 kts | 246° |
| 2026-05-08 00:59 | -30.05035 | 159.16751 | 42059 ft | 413 kts | 246° |
| 2026-05-08 00:59 | -30.08117 | 159.11178 | 42066 ft | 411 kts | 246° |
| 2026-05-08 01:00 | -30.11196 | 159.05601 | 42067 ft | 411 kts | 246° |
| 2026-05-08 01:00 | -30.14243 | 159.00078 | 42055 ft | 409 kts | 247° |
| 2026-05-08 01:01 | -30.17304 | 158.94514 | 42060 ft | 411 kts | 246° |
| 2026-05-08 01:01 | -30.20375 | 158.88931 | 42063 ft | 412 kts | 246° |
| 2026-05-08 01:02 | -30.23454 | 158.83323 | 42067 ft | 413 kts | 246° |
| 2026-05-08 01:02 | -30.26520 | 158.77734 | 42065 ft | 410 kts | 247° |
| 2026-05-08 01:03 | -30.29570 | 158.72162 | 42053 ft | 410 kts | 247° |
| 2026-05-08 01:03 | -30.32614 | 158.66600 | 42055 ft | 408 kts | 247° |
| 2026-05-08 01:04 | -30.35649 | 158.61037 | 42058 ft | 409 kts | 247° |
| 2026-05-08 01:04 | -30.38672 | 158.55494 | 42060 ft | 410 kts | 247° |
| 2026-05-08 01:05 | -30.41716 | 158.49903 | 42062 ft | 411 kts | 247° |
| 2026-05-08 01:05 | -30.44763 | 158.44300 | 42057 ft | 411 kts | 247° |
| 2026-05-08 01:06 | -30.47810 | 158.38690 | 42054 ft | 411 kts | 247° |
| 2026-05-08 01:06 | -30.50857 | 158.33069 | 42057 ft | 411 kts | 247° |
| 2026-05-08 01:07 | -30.53894 | 158.27464 | 42053 ft | 409 kts | 247° |
| 2026-05-08 01:07 | -30.56914 | 158.21875 | 42050 ft | 408 kts | 247° |
| 2026-05-08 01:08 | -30.59910 | 158.16328 | 42046 ft | 408 kts | 247° |
| 2026-05-08 01:08 | -30.62918 | 158.10750 | 42043 ft | 407 kts | 247° |
| 2026-05-08 01:09 | -30.65918 | 158.05178 | 42047 ft | 406 kts | 247° |
| 2026-05-08 01:09 | -30.68923 | 157.99586 | 42093 ft | 408 kts | 247° |
| 2026-05-08 01:10 | -30.71937 | 157.93976 | 42056 ft | 409 kts | 247° |
| 2026-05-08 01:10 | -30.74944 | 157.88365 | 42057 ft | 408 kts | 247° |
| 2026-05-08 01:11 | -30.77935 | 157.82779 | 42039 ft | 407 kts | 247° |
| 2026-05-08 01:11 | -30.80906 | 157.77221 | 42043 ft | 407 kts | 247° |
| 2026-05-08 01:12 | -30.83902 | 157.71608 | 42049 ft | 409 kts | 247° |
| 2026-05-08 01:12 | -30.86903 | 157.65980 | 42054 ft | 410 kts | 247° |
| 2026-05-08 01:13 | -30.89914 | 157.60320 | 42059 ft | 412 kts | 247° |
| 2026-05-08 01:13 | -30.92926 | 157.54660 | 42031 ft | 410 kts | 247° |
| 2026-05-08 01:14 | -30.95915 | 157.49024 | 42047 ft | 408 kts | 247° |
| 2026-05-08 01:14 | -30.98905 | 157.43384 | 42046 ft | 409 kts | 247° |
| 2026-05-08 01:15 | -31.02219 | 157.37930 | 42059 ft | 421 kts | 238° |
| 2026-05-08 01:15 | -31.06124 | 157.32879 | 42056 ft | 422 kts | 238° |
| 2026-05-08 01:16 | -31.10061 | 157.27766 | 42062 ft | 425 kts | 238° |
| 2026-05-08 01:16 | -31.14012 | 157.22649 | 42054 ft | 422 kts | 238° |
| 2026-05-08 01:17 | -31.17925 | 157.17557 | 42040 ft | 420 kts | 238° |
| 2026-05-08 01:17 | -31.21835 | 157.12468 | 42038 ft | 422 kts | 238° |
| 2026-05-08 01:18 | -31.25094 | 157.08222 | 42037 ft | 423 kts | 238° |
| 2026-05-08 01:18 | -31.29674 | 157.02246 | 42051 ft | 424 kts | 238° |
| 2026-05-08 01:19 | -31.33598 | 156.97120 | 42052 ft | 422 kts | 238° |
| 2026-05-08 01:19 | -31.36875 | 156.92832 | 42041 ft | 421 kts | 238° |
| 2026-05-08 01:20 | -31.40751 | 156.87755 | 42050 ft | 420 kts | 238° |
| 2026-05-08 01:20 | -31.44647 | 156.82642 | 42046 ft | 421 kts | 238° |
| 2026-05-08 01:21 | -31.48556 | 156.77508 | 42056 ft | 422 kts | 238° |
| 2026-05-08 01:21 | -31.52482 | 156.72343 | 42059 ft | 425 kts | 238° |
| 2026-05-08 01:22 | -31.56416 | 156.67164 | 42060 ft | 425 kts | 238° |
| 2026-05-08 01:22 | -31.60346 | 156.61979 | 42058 ft | 425 kts | 238° |
| 2026-05-08 01:23 | -31.64268 | 156.56800 | 42049 ft | 424 kts | 238° |
| 2026-05-08 01:23 | -31.68179 | 156.51628 | 42043 ft | 423 kts | 238° |
| 2026-05-08 01:24 | -31.72060 | 156.46485 | 42046 ft | 424 kts | 238° |
| 2026-05-08 01:24 | -31.75972 | 156.41299 | 42044 ft | 424 kts | 238° |
| 2026-05-08 01:25 | -31.79876 | 156.36114 | 42047 ft | 423 kts | 238° |
| 2026-05-08 01:25 | -31.83776 | 156.30928 | 42039 ft | 423 kts | 238° |
| 2026-05-08 01:26 | -31.87670 | 156.25743 | 42040 ft | 423 kts | 238° |
| 2026-05-08 01:26 | -31.91566 | 156.20546 | 42045 ft | 424 kts | 238° |
| 2026-05-08 01:27 | -31.95480 | 156.15319 | 42048 ft | 426 kts | 238° |
| 2026-05-08 01:27 | -31.99393 | 156.10087 | 42046 ft | 425 kts | 238° |
| 2026-05-08 01:28 | -32.03291 | 156.04868 | 42030 ft | 423 kts | 238° |
| 2026-05-08 01:28 | -32.07187 | 155.99641 | 42027 ft | 424 kts | 238° |
| 2026-05-08 01:29 | -32.11070 | 155.94425 | 42038 ft | 428 kts | 238° |
| 2026-05-08 01:29 | -32.15008 | 155.89132 | 42037 ft | 428 kts | 237° |
| 2026-05-08 01:30 | -32.18928 | 155.83853 | 42041 ft | 427 kts | 238° |
| 2026-05-08 01:30 | -32.22834 | 155.78584 | 42034 ft | 426 kts | 238° |
| 2026-05-08 01:31 | -32.26702 | 155.73361 | 42039 ft | 425 kts | 238° |
| 2026-05-08 01:31 | -32.30621 | 155.68057 | 42041 ft | 427 kts | 237° |
| 2026-05-08 01:32 | -32.34513 | 155.62789 | 42048 ft | 429 kts | 237° |
| 2026-05-08 01:32 | -32.38431 | 155.57474 | 42039 ft | 428 kts | 237° |
| 2026-05-08 01:33 | -32.42344 | 155.52159 | 42040 ft | 428 kts | 237° |
| 2026-05-08 01:33 | -32.46245 | 155.46853 | 42038 ft | 427 kts | 237° |
| 2026-05-08 01:34 | -32.50142 | 155.41544 | 42042 ft | 428 kts | 237° |
| 2026-05-08 01:34 | -32.54051 | 155.36212 | 42036 ft | 428 kts | 237° |
| 2026-05-08 01:35 | -32.57953 | 155.30881 | 42038 ft | 428 kts | 237° |
| 2026-05-08 01:35 | -32.61858 | 155.25538 | 42034 ft | 429 kts | 237° |
| 2026-05-08 01:36 | -32.65762 | 155.20191 | 42042 ft | 428 kts | 237° |
| 2026-05-08 01:36 | -32.69628 | 155.14884 | 42033 ft | 428 kts | 237° |
| 2026-05-08 01:37 | -32.73529 | 155.09525 | 42030 ft | 429 kts | 237° |
| 2026-05-08 01:37 | -32.77428 | 155.04160 | 42026 ft | 429 kts | 237° |
| 2026-05-08 01:38 | -32.81323 | 154.98795 | 42033 ft | 429 kts | 237° |
| 2026-05-08 01:38 | -32.85157 | 154.93391 | 42044 ft | 423 kts | 242° |
| 2026-05-08 01:39 | -32.88351 | 154.87536 | 42035 ft | 423 kts | 243° |
| 2026-05-08 01:39 | -32.91524 | 154.81627 | 42032 ft | 423 kts | 244° |
| 2026-05-08 01:40 | -32.94664 | 154.75737 | 42031 ft | 424 kts | 244° |
| 2026-05-08 01:40 | -32.97833 | 154.69801 | 42034 ft | 424 kts | 244° |
| 2026-05-08 01:41 | -33.00987 | 154.63874 | 42034 ft | 423 kts | 243° |
| 2026-05-08 01:41 | -33.04137 | 154.57950 | 42063 ft | 423 kts | 243° |
| 2026-05-08 01:42 | -33.07280 | 154.52028 | 42025 ft | 421 kts | 243° |
| 2026-05-08 01:42 | -33.10390 | 154.46157 | 42022 ft | 421 kts | 243° |
| 2026-05-08 01:43 | -33.13514 | 154.40252 | 42020 ft | 421 kts | 243° |
| 2026-05-08 01:43 | -33.16635 | 154.34344 | 42029 ft | 420 kts | 243° |
| 2026-05-08 01:44 | -33.19743 | 154.28450 | 42013 ft | 419 kts | 243° |
| 2026-05-08 01:44 | -33.22848 | 154.22551 | 42020 ft | 420 kts | 243° |
| 2026-05-08 01:45 | -33.25960 | 154.16631 | 42023 ft | 421 kts | 243° |
| 2026-05-08 01:45 | -33.29069 | 154.10707 | 42028 ft | 421 kts | 243° |
| 2026-05-08 01:46 | -33.32181 | 154.04768 | 42011 ft | 422 kts | 243° |
| 2026-05-08 01:46 | -33.35287 | 153.98832 | 42032 ft | 420 kts | 243° |
| 2026-05-08 01:47 | -33.38362 | 153.92941 | 42031 ft | 420 kts | 243° |
| 2026-05-08 01:47 | -33.41445 | 153.87031 | 42030 ft | 417 kts | 243° |
| 2026-05-08 01:48 | -33.46059 | 153.78162 | 42031 ft | 419 kts | 243° |
| 2026-05-08 01:48 | -33.49138 | 153.72234 | 42033 ft | 419 kts | 243° |
| 2026-05-08 01:49 | -33.52195 | 153.66338 | 42017 ft | 418 kts | 243° |
| 2026-05-08 01:49 | -33.55268 | 153.60399 | 42038 ft | 419 kts | 243° |
| 2026-05-08 01:50 | -33.58341 | 153.54453 | 42035 ft | 420 kts | 243° |
| 2026-05-08 01:50 | -33.61417 | 153.48491 | 42041 ft | 420 kts | 243° |
| 2026-05-08 01:51 | -33.64489 | 153.42527 | 42012 ft | 420 kts | 243° |
| 2026-05-08 01:51 | -33.67558 | 153.36560 | 42026 ft | 420 kts | 243° |
| 2026-05-08 01:52 | -33.70621 | 153.30594 | 42028 ft | 419 kts | 243° |
| 2026-05-08 01:52 | -33.73696 | 153.24591 | 42035 ft | 424 kts | 243° |
| 2026-05-08 01:53 | -33.76792 | 153.18545 | 42035 ft | 424 kts | 243° |
| 2026-05-08 01:53 | -33.79855 | 153.12547 | 42016 ft | 424 kts | 243° |
| 2026-05-08 01:54 | -33.82926 | 153.06526 | 41831 ft | 417 kts | 243° |
| 2026-05-08 01:54 | -33.84421 | 153.03598 | 41223 ft | 407 kts | 243° |
| 2026-05-08 01:54 | -33.85894 | 153.00698 | 40628 ft | 405 kts | 243° |
| 2026-05-08 01:55 | -33.87362 | 152.97804 | 40036 ft | 405 kts | 243° |
| 2026-05-08 01:55 | -33.88833 | 152.94909 | 39387 ft | 406 kts | 243° |
| 2026-05-08 01:55 | -33.90307 | 152.92010 | 38746 ft | 407 kts | 243° |
| 2026-05-08 01:55 | -33.91786 | 152.89094 | 38035 ft | 407 kts | 243° |
| 2026-05-08 01:56 | -33.93257 | 152.86191 | 37352 ft | 407 kts | 243° |
| 2026-05-08 01:56 | -33.94731 | 152.83280 | 36643 ft | 408 kts | 242° |
| 2026-05-08 01:56 | -33.96216 | 152.80344 | 35879 ft | 410 kts | 242° |
| 2026-05-08 01:56 | -33.97705 | 152.77401 | 35097 ft | 411 kts | 242° |
| 2026-05-08 01:57 | -33.99175 | 152.74492 | 34324 ft | 412 kts | 241° |
| 2026-05-08 01:57 | -34.00663 | 152.71545 | 33447 ft | 412 kts | 241° |
| 2026-05-08 01:57 | -34.02146 | 152.68604 | 32594 ft | 410 kts | 241° |
| 2026-05-08 01:57 | -34.03631 | 152.65655 | 31691 ft | 414 kts | 240° |
| 2026-05-08 01:58 | -34.05101 | 152.62656 | 30793 ft | 414 kts | 243° |
| 2026-05-08 01:58 | -34.06255 | 152.59489 | 29847 ft | 412 kts | 250° |
| 2026-05-08 01:58 | -34.07043 | 152.56190 | 28964 ft | 408 kts | 256° |
| 2026-05-08 01:58 | -34.07458 | 152.52820 | 28091 ft | 405 kts | 262° |
| 2026-05-08 01:59 | -34.07500 | 152.49458 | 27249 ft | 397 kts | 268° |
| 2026-05-08 01:59 | -34.07228 | 152.46155 | 26402 ft | 394 kts | 270° |
| 2026-05-08 01:59 | -34.06930 | 152.42886 | 25597 ft | 390 kts | 270° |
| 2026-05-08 01:59 | -34.06630 | 152.39649 | 24804 ft | 386 kts | 270° |
| 2026-05-08 02:00 | -34.06323 | 152.36445 | 24018 ft | 383 kts | 270° |
| 2026-05-08 02:00 | -34.06018 | 152.33265 | 23193 ft | 379 kts | 270° |
| 2026-05-08 02:00 | -34.05722 | 152.30137 | 22436 ft | 372 kts | 269° |
| 2026-05-08 02:00 | -34.05429 | 152.27055 | 21695 ft | 366 kts | 269° |
| 2026-05-08 02:01 | -34.05141 | 152.24038 | 20964 ft | 360 kts | 269° |
| 2026-05-08 02:01 | -34.04855 | 152.21048 | 20246 ft | 358 kts | 269° |
| 2026-05-08 02:01 | -34.04574 | 152.18106 | 19542 ft | 358 kts | 269° |
| 2026-05-08 02:01 | -34.04287 | 152.15135 | 18833 ft | 355 kts | 270° |
| 2026-05-08 02:02 | -34.04000 | 152.12194 | 18106 ft | 350 kts | 270° |
| 2026-05-08 02:02 | -34.03720 | 152.09304 | 17408 ft | 345 kts | 270° |
| 2026-05-08 02:02 | -34.03444 | 152.06432 | 16730 ft | 345 kts | 270° |
| 2026-05-08 02:02 | -34.03162 | 152.03564 | 16049 ft | 343 kts | 270° |
| 2026-05-08 02:03 | -34.02872 | 152.00735 | 15380 ft | 336 kts | 270° |
| 2026-05-08 02:03 | -34.02592 | 151.97979 | 14726 ft | 329 kts | 270° |
| 2026-05-08 02:03 | -34.02320 | 151.95256 | 14093 ft | 323 kts | 270° |
| 2026-05-08 02:03 | -34.02053 | 151.92594 | 13429 ft | 316 kts | 271° |
| 2026-05-08 02:04 | -34.01790 | 151.90004 | 12836 ft | 307 kts | 271° |
| 2026-05-08 02:04 | -34.01534 | 151.87479 | 12264 ft | 300 kts | 271° |
| 2026-05-08 02:04 | -34.01284 | 151.85009 | 11685 ft | 293 kts | 272° |
| 2026-05-08 02:04 | -34.01039 | 151.82595 | 11141 ft | 287 kts | 272° |
| 2026-05-08 02:05 | -34.00798 | 151.80234 | 10554 ft | 282 kts | 272° |
| 2026-05-08 02:05 | -34.00470 | 151.77905 | 9968 ft | 282 kts | 283° |
| 2026-05-08 02:05 | -33.99690 | 151.75811 | 9663 ft | 269 kts | 290° |
| 2026-05-08 02:05 | -33.98891 | 151.73842 | 9315 ft | 255 kts | 290° |
| 2026-05-08 02:06 | -33.98095 | 151.71906 | 8995 ft | 258 kts | 290° |
| 2026-05-08 02:06 | -33.97304 | 151.69984 | 8688 ft | 255 kts | 289° |
| 2026-05-08 02:06 | -33.96520 | 151.68070 | 8350 ft | 256 kts | 289° |
| 2026-05-08 02:06 | -33.95734 | 151.66153 | 8001 ft | 255 kts | 289° |
| 2026-05-08 02:07 | -33.94946 | 151.64235 | 7663 ft | 255 kts | 289° |
| 2026-05-08 02:07 | -33.94157 | 151.62313 | 7336 ft | 256 kts | 290° |
| 2026-05-08 02:07 | -33.93631 | 151.61035 | 7106 ft | 257 kts | 289° |
| 2026-05-08 02:07 | -33.92838 | 151.59107 | 6770 ft | 257 kts | 289° |
| 2026-05-08 02:08 | -33.92041 | 151.57173 | 6435 ft | 257 kts | 289° |
| 2026-05-08 02:08 | -33.91250 | 151.55253 | 6094 ft | 256 kts | 289° |
| 2026-05-08 02:08 | -33.90461 | 151.53340 | 5743 ft | 252 kts | 289° |
| 2026-05-08 02:08 | -33.89701 | 151.51504 | 5428 ft | 244 kts | 289° |
| 2026-05-08 02:09 | -33.88956 | 151.49699 | 5103 ft | 237 kts | 288° |
| 2026-05-08 02:09 | -33.88232 | 151.47942 | 4807 ft | 232 kts | 288° |
| 2026-05-08 02:09 | -33.87685 | 151.46186 | 4481 ft | 216 kts | 270° |
| 2026-05-08 02:09 | -33.87728 | 151.44452 | 4211 ft | 201 kts | 251° |
| 2026-05-08 02:10 | -33.88137 | 151.42890 | 3969 ft | 193 kts | 248° |
| 2026-05-08 02:10 | -33.88507 | 151.41356 | 3725 ft | 188 kts | 248° |
| 2026-05-08 02:10 | -33.88874 | 151.39879 | 3486 ft | 180 kts | 248° |
| 2026-05-08 02:10 | -33.89216 | 151.38361 | 3364 ft | 197 kts | 250° |
| 2026-05-08 02:11 | -33.89575 | 151.36753 | 3103 ft | 200 kts | 250° |
| 2026-05-08 02:11 | -33.89948 | 151.35158 | 2831 ft | 195 kts | 250° |
| 2026-05-08 02:11 | -33.90318 | 151.33590 | 2560 ft | 196 kts | 250° |
| 2026-05-08 02:11 | -33.90695 | 151.32012 | 2292 ft | 196 kts | 252° |
| 2026-05-08 02:12 | -33.91069 | 151.30435 | 2028 ft | 195 kts | 253° |
| 2026-05-08 02:12 | -33.91407 | 151.28973 | 1769 ft | 167 kts | 255° |
| 2026-05-08 02:12 | -33.91701 | 151.27728 | 1556 ft | 143 kts | 255° |
| 2026-05-08 02:12 | -33.91953 | 151.26653 | 1366 ft | 125 kts | 254° |
| 2026-05-08 02:13 | -33.92187 | 151.25658 | 1209 ft | 123 kts | 255° |
| 2026-05-08 02:13 | -33.92422 | 151.24656 | 1050 ft | 124 kts | 253° |
| 2026-05-08 02:13 | -33.92655 | 151.23663 | 887 ft | 122 kts | 255° |
| 2026-05-08 02:13 | -33.92878 | 151.22706 | 712 ft | 121 kts | 253° |
| 2026-05-08 02:14 | -33.93113 | 151.21711 | 582 ft | 128 kts | 253° |
| 2026-05-08 02:14 | -33.93353 | 151.20699 | 394 ft | 129 kts | 254° |
| 2026-05-08 02:14 | -33.93593 | 151.19661 | 216 ft | 129 kts | 253° |
| 2026-05-08 02:14 | -33.93840 | 151.18620 | 53 ft | 128 kts | 252° |
| 2026-05-08 02:15 | -33.94046 | 151.17754 | 29 ft | 78 kts | 255° |
| 2026-05-08 02:15 | -33.94137 | 151.17363 | 27 ft | 25 kts | 256° |
| 2026-05-08 02:15 | -33.94102 | 151.17247 | 28 ft | 9 kts | 341° |
| 2026-05-08 02:15 | -33.94047 | 151.17231 | 27 ft | 9 kts | 345° |
| 2026-05-08 02:16 | -33.93989 | 151.17198 | 29 ft | 6 kts | 305° |
| 2026-05-08 02:16 | -33.93987 | 151.17184 | 29 ft | 2 kts | 271° |
| 2026-05-08 02:16 | -33.93989 | 151.17127 | 27 ft | 10 kts | 268° |
| 2026-05-08 02:16 | -33.94011 | 151.17037 | 26 ft | 18 kts | 253° |
| 2026-05-08 02:17 | -33.94054 | 151.16856 | 27 ft | 20 kts | 260° |
| 2026-05-08 02:17 | -33.94019 | 151.16744 | 27 ft | 10 kts | 335° |
| 2026-05-08 02:17 | -33.93986 | 151.16749 | 27 ft | 2 kts | 45° |
| 2026-05-08 02:17 | -33.93975 | 151.16770 | 27 ft | 2 kts | 69° |
| 2026-05-08 02:18 | -33.93964 | 151.16825 | 27 ft | 0 kts | 77° |
| 2026-05-08 02:18 | -33.93963 | 151.16830 | 27 ft | 4 kts | 78° |
| 2026-05-08 02:18 | -33.93955 | 151.16878 | 27 ft | 0 kts | 75° |
| 2026-05-08 02:18 | -33.93953 | 151.16887 | 27 ft | 0 kts | 75° |